Observation data for Tarzan on 07/18/2019      Previous  Date  Next       Current Mesonet Observations  Soil Data  Daily Summary Page  Observations in Plain Language
KTA1 180500Z 15004KT 27/18 A2999 RMK A01 T02660183  RH  061%=      5-min Rain = 0
KTA1 180501Z 15004KT 27/18 A2999 RMK A01 T02650183  RH  061%=      5-min Rain = 0
KTA1 180502Z 15004KT 27/18 A2999 RMK A01 T02650183  RH  061%=      5-min Rain = 0
KTA1 180503Z 15004KT 27/18 A2999 RMK A01 T02650183  RH  061%=      5-min Rain = 0
KTA1 180504Z 15004KT 26/18 A2999 RMK A01 T02640183  RH  061%=      5-min Rain = 0
KTA1 180505Z 15004KT 26/18 A2999 RMK A01 T02640183  RH  061%=      5-min Rain = 0
KTA1 180506Z 15004KT 26/18 A2999 RMK A01 T02640183  RH  061%=      5-min Rain = 0
KTA1 180507Z 15005KT 26/18 A2999 RMK A01 T02640183  RH  061%=      5-min Rain = 0
KTA1 180508Z 15004KT 26/18 A2999 RMK A01 T02640183  RH  061%=      5-min Rain = 0
KTA1 180509Z 14004KT 26/18 A2999 RMK A01 T02630183  RH  061%=      5-min Rain = 0
KTA1 180510Z 14004KT 26/18 A2999 RMK A01 T02630182  RH  061%=      5-min Rain = 0
KTA1 180511Z 14004KT 26/18 A2999 RMK A01 T02630182  RH  061%=      5-min Rain = 0
KTA1 180512Z 14004KT 26/18 A2999 RMK A01 T02620182  RH  061%=      5-min Rain = 0
KTA1 180513Z 14004KT 26/18 A2999 RMK A01 T02620182  RH  061%=      5-min Rain = 0
KTA1 180514Z 14004KT 26/18 A2999 RMK A01 T02620182  RH  061%=      5-min Rain = 0
KTA1 180515Z 14004KT 26/18 A2999 RMK A01 T02620182  RH  061%=      5-min Rain = 0
KTA1 180516Z 14004KT 26/18 A2999 RMK A01 T02620182  RH  061%=      5-min Rain = 0
KTA1 180517Z 14004KT 26/18 A2999 RMK A01 T02620182  RH  061%=      5-min Rain = 0
KTA1 180518Z 14004KT 26/18 A2999 RMK A01 T02610182  RH  061%=      5-min Rain = 0
KTA1 180519Z 14004KT 26/18 A2999 RMK A01 T02620182  RH  061%=      5-min Rain = 0
KTA1 180520Z 14004KT 26/18 A2999 RMK A01 T02610181  RH  062%=      5-min Rain = 0
KTA1 180521Z 14004KT 26/18 A2999 RMK A01 T02610182  RH  062%=      5-min Rain = 0
KTA1 180522Z 13004KT 26/18 A2999 RMK A01 T02610182  RH  062%=      5-min Rain = 0
KTA1 180523Z 13004KT 26/18 A2999 RMK A01 T02600181  RH  062%=      5-min Rain = 0
KTA1 180524Z 14005KT 26/18 A2999 RMK A01 T02600181  RH  062%=      5-min Rain = 0
KTA1 180525Z 14004KT 26/18 A2999 RMK A01 T02600181  RH  062%=      5-min Rain = 0
KTA1 180526Z 15005KT 26/18 A2999 RMK A01 T02590181  RH  062%=      5-min Rain = 0
KTA1 180527Z 15005KT 26/18 A2999 RMK A01 T02590181  RH  062%=      5-min Rain = 0
KTA1 180528Z 15005KT 26/18 A2999 RMK A01 T02580181  RH  062%=      5-min Rain = 0
KTA1 180529Z 15005KT 26/18 A2999 RMK A01 T02580180  RH  062%=      5-min Rain = 0
KTA1 180530Z 15004KT 26/18 A2999 RMK A01 T02590180  RH  062%=      5-min Rain = 0
KTA1 180531Z 15005KT 26/18 A2999 RMK A01 T02590180  RH  062%=      5-min Rain = 0
KTA1 180532Z 15005KT 26/18 A2999 RMK A01 T02590180  RH  062%=      5-min Rain = 0
KTA1 180533Z 15004KT 26/18 A2999 RMK A01 T02590180  RH  062%=      5-min Rain = 0
KTA1 180534Z 16005KT 26/18 A2999 RMK A01 T02590180  RH  062%=      5-min Rain = 0
KTA1 180535Z 16005KT 26/18 A2999 RMK A01 T02590179  RH  061%=      5-min Rain = 0
KTA1 180536Z 16004KT 26/18 A2999 RMK A01 T02590178  RH  061%=      5-min Rain = 0
KTA1 180537Z 16005KT 26/18 A2999 RMK A01 T02600178  RH  061%=      5-min Rain = 0
KTA1 180538Z 16005KT 26/18 A2999 RMK A01 T02610178  RH  060%=      5-min Rain = 0
KTA1 180539Z 16006KT 26/18 A2999 RMK A01 T02610178  RH  060%=      5-min Rain = 0
KTA1 180540Z 16006KT 26/18 A2999 RMK A01 T02610178  RH  060%=      5-min Rain = 0
KTA1 180541Z 16006KT 26/18 A2999 RMK A01 T02610177  RH  060%=      5-min Rain = 0
KTA1 180542Z 16006KT 26/18 A2999 RMK A01 T02610177  RH  060%=      5-min Rain = 0
KTA1 180543Z 16006KT 26/18 A2999 RMK A01 T02620177  RH  060%=      5-min Rain = 0
KTA1 180544Z 16007KT 26/18 A2999 RMK A01 T02620177  RH  059%=      5-min Rain = 0
KTA1 180545Z 16007KT 26/18 A2999 RMK A01 T02620176  RH  059%=      5-min Rain = 0
KTA1 180546Z 16007KT 26/18 A2999 RMK A01 T02630176  RH  059%=      5-min Rain = 0
KTA1 180547Z 16007KT 26/18 A2999 RMK A01 T02630176  RH  059%=      5-min Rain = 0
KTA1 180548Z 15007KT 26/18 A2999 RMK A01 T02630176  RH  058%=      5-min Rain = 0
KTA1 180549Z 15007KT 26/18 A2999 RMK A01 T02640175  RH  058%=      5-min Rain = 0
KTA1 180550Z 16008KT 26/18 A2998 RMK A01 T02640175  RH  058%=      5-min Rain = 0
KTA1 180551Z 15008KT 26/17 A2998 RMK A01 T02640174  RH  058%=      5-min Rain = 0
KTA1 180552Z 16008KT 26/17 A2998 RMK A01 T02640174  RH  058%=      5-min Rain = 0
KTA1 180553Z 15008KT 27/17 A2998 RMK A01 T02650174  RH  057%=      5-min Rain = 0
KTA1 180554Z 15008KT 27/17 A2998 RMK A01 T02650174  RH  057%=      5-min Rain = 0
KTA1 180555Z 16007KT 27/17 A2998 RMK A01 T02650173  RH  057%=      5-min Rain = 0
KTA1 180556Z 16007KT 27/17 A2998 RMK A01 T02660173  RH  057%=      5-min Rain = 0
KTA1 180557Z 16007KT 27/17 A2998 RMK A01 T02660173  RH  057%=      5-min Rain = 0
KTA1 180558Z 16008KT 27/17 A2998 RMK A01 T02660173  RH  057%=      5-min Rain = 0
KTA1 180559Z 16007KT 27/17 A2998 RMK A01 T02660172  RH  056%=      5-min Rain = 0
KTA1 180600Z 16007KT 27/17 A2998 RMK A01 T02660172  RH  056%=      5-min Rain = 0
KTA1 180601Z 16008KT 27/17 A2998 RMK A01 T02670172  RH  056%=      5-min Rain = 0
KTA1 180602Z 15008KT 27/17 A2998 RMK A01 T02670172  RH  056%=      5-min Rain = 0
KTA1 180603Z 15008KT 27/17 A2998 RMK A01 T02670172  RH  056%=      5-min Rain = 0
KTA1 180604Z 15008KT 27/17 A2998 RMK A01 T02680172  RH  056%=      5-min Rain = 0
KTA1 180605Z 16007KT 27/17 A2998 RMK A01 T02680172  RH  056%=      5-min Rain = 0
KTA1 180606Z 16008KT 27/17 A2998 RMK A01 T02680172  RH  055%=      5-min Rain = 0
KTA1 180607Z 16007KT 27/17 A2998 RMK A01 T02680171  RH  055%=      5-min Rain = 0
KTA1 180608Z 16007KT 27/17 A2998 RMK A01 T02680171  RH  055%=      5-min Rain = 0
KTA1 180609Z 16007KT 27/17 A2998 RMK A01 T02680171  RH  055%=      5-min Rain = 0
KTA1 180610Z 16008KT 27/17 A2998 RMK A01 T02690170  RH  055%=      5-min Rain = 0
KTA1 180611Z 16007KT 27/17 A2998 RMK A01 T02690170  RH  055%=      5-min Rain = 0
KTA1 180612Z 16007KT 27/17 A2998 RMK A01 T02700170  RH  054%=      5-min Rain = 0
KTA1 180613Z 16007KT 27/17 A2998 RMK A01 T02690169  RH  054%=      5-min Rain = 0
KTA1 180614Z 16008KT 27/17 A2998 RMK A01 T02700169  RH  054%=      5-min Rain = 0
KTA1 180615Z 16007KT 27/17 A2998 RMK A01 T02710169  RH  054%=      5-min Rain = 0
KTA1 180616Z 16007KT 27/17 A2998 RMK A01 T02710169  RH  054%=      5-min Rain = 0
KTA1 180617Z 16008KT 27/17 A2998 RMK A01 T02710169  RH  054%=      5-min Rain = 0
KTA1 180618Z 16007KT 27/17 A2998 RMK A01 T02710169  RH  054%=      5-min Rain = 0
KTA1 180619Z 16008KT 27/17 A2998 RMK A01 T02710169  RH  054%=      5-min Rain = 0
KTA1 180620Z 16007KT 27/17 A2998 RMK A01 T02710169  RH  054%=      5-min Rain = 0
KTA1 180621Z 16009KT 27/17 A2998 RMK A01 T02710169  RH  054%=      5-min Rain = 0
KTA1 180622Z 16009KT 27/17 A2998 RMK A01 T02710168  RH  053%=      5-min Rain = 0
KTA1 180623Z 16007KT 27/17 A2998 RMK A01 T02710168  RH  053%=      5-min Rain = 0
KTA1 180624Z 16007KT 27/17 A2998 RMK A01 T02710168  RH  053%=      5-min Rain = 0
KTA1 180625Z 16007KT 27/17 A2998 RMK A01 T02720168  RH  053%=      5-min Rain = 0
KTA1 180626Z 16008KT 27/17 A2998 RMK A01 T02720168  RH  053%=      5-min Rain = 0
KTA1 180627Z 16008KT 27/17 A2998 RMK A01 T02720168  RH  053%=      5-min Rain = 0
KTA1 180628Z 16008KT 27/17 A2998 RMK A01 T02720168  RH  053%=      5-min Rain = 0
KTA1 180629Z 16008KT 27/17 A2998 RMK A01 T02720167  RH  053%=      5-min Rain = 0
KTA1 180630Z 16009KT 27/17 A2998 RMK A01 T02720167  RH  053%=      5-min Rain = 0
KTA1 180631Z 15009KT 27/17 A2998 RMK A01 T02720167  RH  053%=      5-min Rain = 0
KTA1 180632Z 15009KT 27/17 A2998 RMK A01 T02720167  RH  053%=      5-min Rain = 0
KTA1 180633Z 16008KT 27/17 A2998 RMK A01 T02720167  RH  052%=      5-min Rain = 0
KTA1 180634Z 15009KT 27/17 A2998 RMK A01 T02730167  RH  053%=      5-min Rain = 0
KTA1 180635Z 15009KT 27/17 A2998 RMK A01 T02720167  RH  053%=      5-min Rain = 0
KTA1 180636Z 16009KT 27/17 A2998 RMK A01 T02720167  RH  053%=      5-min Rain = 0
KTA1 180637Z 15009KT 27/17 A2998 RMK A01 T02720167  RH  053%=      5-min Rain = 0
KTA1 180638Z 15009KT 27/17 A2998 RMK A01 T02720167  RH  052%=      5-min Rain = 0
KTA1 180639Z 15010KT 27/17 A2998 RMK A01 T02720166  RH  052%=      5-min Rain = 0
KTA1 180640Z 16008KT 27/17 A2998 RMK A01 T02720166  RH  052%=      5-min Rain = 0
KTA1 180641Z 16010KT 27/17 A2998 RMK A01 T02720166  RH  052%=      5-min Rain = 0
KTA1 180642Z 16010KT 27/17 A2998 RMK A01 T02720166  RH  052%=      5-min Rain = 0
KTA1 180643Z 16008KT 27/17 A2998 RMK A01 T02720166  RH  052%=      5-min Rain = 0
KTA1 180644Z 16006KT 27/17 A2998 RMK A01 T02720166  RH  052%=      5-min Rain = 0
KTA1 180645Z 16007KT 27/17 A2998 RMK A01 T02730166  RH  052%=      5-min Rain = 0
KTA1 180646Z 16008KT 27/17 A2998 RMK A01 T02720166  RH  052%=      5-min Rain = 0
KTA1 180647Z 16008KT 27/17 A2998 RMK A01 T02720166  RH  052%=      5-min Rain = 0
KTA1 180648Z 16008KT 27/17 A2998 RMK A01 T02730166  RH  052%=      5-min Rain = 0
KTA1 180649Z 16009KT 27/17 A2998 RMK A01 T02730165  RH  052%=      5-min Rain = 0
KTA1 180650Z 16009KT 27/17 A2998 RMK A01 T02730165  RH  052%=      5-min Rain = 0
KTA1 180651Z 16009KT 27/17 A2998 RMK A01 T02730165  RH  052%=      5-min Rain = 0
KTA1 180652Z 16009KT 27/17 A2998 RMK A01 T02730165  RH  052%=      5-min Rain = 0
KTA1 180653Z 16009KT 27/17 A2998 RMK A01 T02730165  RH  052%=      5-min Rain = 0
KTA1 180654Z 16009KT 27/17 A2998 RMK A01 T02730165  RH  052%=      5-min Rain = 0
KTA1 180655Z 16008KT 27/17 A2998 RMK A01 T02730165  RH  052%=      5-min Rain = 0
KTA1 180656Z 16008KT 27/17 A2998 RMK A01 T02730165  RH  052%=      5-min Rain = 0
KTA1 180657Z 16008KT 27/17 A2998 RMK A01 T02730165  RH  052%=      5-min Rain = 0
KTA1 180658Z 16008KT 27/16 A2998 RMK A01 T02730164  RH  051%=      5-min Rain = 0
KTA1 180659Z 16009KT 27/16 A2998 RMK A01 T02730164  RH  051%=      5-min Rain = 0
KTA1 180700Z 16010KT 27/16 A2998 RMK A01 T02740164  RH  051%=      5-min Rain = 0
KTA1 180701Z 16008KT 27/16 A2998 RMK A01 T02740164  RH  051%=      5-min Rain = 0
KTA1 180702Z 16008KT 27/16 A2998 RMK A01 T02740164  RH  051%=      5-min Rain = 0
KTA1 180703Z 16010KT 27/16 A2998 RMK A01 T02740164  RH  051%=      5-min Rain = 0
KTA1 180704Z 16010KT 28/16 A2998 RMK A01 T02750163  RH  051%=      5-min Rain = 0
KTA1 180705Z 16010KT 28/16 A2998 RMK A01 T02750163  RH  050%=      5-min Rain = 0
KTA1 180706Z 16011KT 28/16 A2998 RMK A01 T02750163  RH  050%=      5-min Rain = 0
KTA1 180707Z 16011KT 28/16 A2998 RMK A01 T02760163  RH  050%=      5-min Rain = 0
KTA1 180708Z 16010KT 28/16 A2998 RMK A01 T02760163  RH  050%=      5-min Rain = 0
KTA1 180709Z 16010KT 28/16 A2998 RMK A01 T02760163  RH  050%=      5-min Rain = 0
KTA1 180710Z 16011KT 28/16 A2998 RMK A01 T02760163  RH  050%=      5-min Rain = 0
KTA1 180711Z 16009KT 28/16 A2998 RMK A01 T02760163  RH  050%=      5-min Rain = 0
KTA1 180712Z 16009KT 28/16 A2998 RMK A01 T02760163  RH  050%=      5-min Rain = 0
KTA1 180713Z 16010KT 28/16 A2998 RMK A01 T02750163  RH  050%=      5-min Rain = 0
KTA1 180714Z 16010KT 28/16 A2998 RMK A01 T02750163  RH  050%=      5-min Rain = 0
KTA1 180715Z 16011KT 28/16 A2998 RMK A01 T02750163  RH  050%=      5-min Rain = 0
KTA1 180716Z 16011KT 28/16 A2998 RMK A01 T02750162  RH  050%=      5-min Rain = 0
KTA1 180717Z 16010KT 28/16 A2998 RMK A01 T02750162  RH  050%=      5-min Rain = 0
KTA1 180718Z 16008KT 28/16 A2998 RMK A01 T02750162  RH  050%=      5-min Rain = 0
KTA1 180719Z 16010KT 28/16 A2998 RMK A01 T02750162  RH  050%=      5-min Rain = 0
KTA1 180720Z 16011KT 28/16 A2998 RMK A01 T02750162  RH  050%=      5-min Rain = 0
KTA1 180721Z 16010KT 28/16 A2997 RMK A01 T02750162  RH  050%=      5-min Rain = 0
KTA1 180722Z 16011KT 28/16 A2997 RMK A01 T02750162  RH  050%=      5-min Rain = 0
KTA1 180723Z 16011KT 27/16 A2997 RMK A01 T02740162  RH  050%=      5-min Rain = 0
KTA1 180724Z 16012KT 27/16 A2997 RMK A01 T02740162  RH  050%=      5-min Rain = 0
KTA1 180725Z 16012KT 27/16 A2997 RMK A01 T02740162  RH  050%=      5-min Rain = 0
KTA1 180726Z 16010KT 27/16 A2997 RMK A01 T02740162  RH  050%=      5-min Rain = 0
KTA1 180727Z 16011KT 27/16 A2998 RMK A01 T02740162  RH  051%=      5-min Rain = 0
KTA1 180728Z 16011KT 27/16 A2998 RMK A01 T02740162  RH  051%=      5-min Rain = 0
KTA1 180729Z 16011KT 27/16 A2998 RMK A01 T02730162  RH  051%=      5-min Rain = 0
KTA1 180730Z 15011KT 27/16 A2998 RMK A01 T02730162  RH  051%=      5-min Rain = 0
KTA1 180731Z 16010KT 27/16 A2998 RMK A01 T02730162  RH  051%=      5-min Rain = 0
KTA1 180732Z 16010KT 27/16 A2998 RMK A01 T02730162  RH  051%=      5-min Rain = 0
KTA1 180733Z 15010KT 27/16 A2998 RMK A01 T02730162  RH  051%=      5-min Rain = 0
KTA1 180734Z 16011KT 27/16 A2998 RMK A01 T02730162  RH  051%=      5-min Rain = 0
KTA1 180735Z 16011KT 27/16 A2998 RMK A01 T02720162  RH  051%=      5-min Rain = 0
KTA1 180736Z 16011KT 27/16 A2998 RMK A01 T02720162  RH  051%=      5-min Rain = 0
KTA1 180737Z 16012KT 27/16 A2998 RMK A01 T02720162  RH  051%=      5-min Rain = 0
KTA1 180738Z 16012KT 27/16 A2998 RMK A01 T02720162  RH  051%=      5-min Rain = 0
KTA1 180739Z 15011KT 27/16 A2998 RMK A01 T02720162  RH  051%=      5-min Rain = 0
KTA1 180740Z 16012G17KT 27/16 A2998 RMK A01 T02720161  RH  051%=      5-min Rain = 0
KTA1 180741Z 15012KT 27/16 A2998 RMK A01 T02720162  RH  051%=      5-min Rain = 0
KTA1 180742Z 16013KT 27/16 A2998 RMK A01 T02720161  RH  051%=      5-min Rain = 0
KTA1 180743Z 16012KT 27/16 A2998 RMK A01 T02720161  RH  051%=      5-min Rain = 0
KTA1 180744Z 16014KT 27/16 A2998 RMK A01 T02720161  RH  051%=      5-min Rain = 0
KTA1 180745Z 15014KT 27/16 A2998 RMK A01 T02720161  RH  051%=      5-min Rain = 0
KTA1 180746Z 16012KT 27/16 A2998 RMK A01 T02720161  RH  051%=      5-min Rain = 0
KTA1 180747Z 16012KT 27/16 A2998 RMK A01 T02730162  RH  051%=      5-min Rain = 0
KTA1 180748Z 16011KT 27/16 A2998 RMK A01 T02720161  RH  051%=      5-min Rain = 0
KTA1 180749Z 16011KT 27/16 A2998 RMK A01 T02720161  RH  051%=      5-min Rain = 0
KTA1 180750Z 16010KT 27/16 A2998 RMK A01 T02710161  RH  051%=      5-min Rain = 0
KTA1 180751Z 15010KT 27/16 A2998 RMK A01 T02700161  RH  051%=      5-min Rain = 0
KTA1 180752Z 15011KT 27/16 A2998 RMK A01 T02700162  RH  051%=      5-min Rain = 0
KTA1 180753Z 15010KT 27/16 A2998 RMK A01 T02700161  RH  052%=      5-min Rain = 0
KTA1 180754Z 15011KT 27/16 A2998 RMK A01 T02690162  RH  052%=      5-min Rain = 0
KTA1 180755Z 15011KT 27/16 A2998 RMK A01 T02690162  RH  052%=      5-min Rain = 0
KTA1 180756Z 15010KT 27/16 A2998 RMK A01 T02680161  RH  052%=      5-min Rain = 0
KTA1 180757Z 15010KT 27/16 A2998 RMK A01 T02680162  RH  052%=      5-min Rain = 0
KTA1 180758Z 15009KT 27/16 A2998 RMK A01 T02670161  RH  052%=      5-min Rain = 0
KTA1 180759Z 15010KT 27/16 A2998 RMK A01 T02670161  RH  052%=      5-min Rain = 0
KTA1 180800Z 15011KT 27/16 A2998 RMK A01 T02670162  RH  052%=      5-min Rain = 0
KTA1 180801Z 15010KT 27/16 A2998 RMK A01 T02670162  RH  052%=      5-min Rain = 0
KTA1 180802Z 15010KT 27/16 A2998 RMK A01 T02670162  RH  053%=      5-min Rain = 0
KTA1 180803Z 15011KT 27/16 A2998 RMK A01 T02670163  RH  053%=      5-min Rain = 0
KTA1 180804Z 15009KT 27/16 A2998 RMK A01 T02670163  RH  053%=      5-min Rain = 0
KTA1 180805Z 16010KT 27/16 A2998 RMK A01 T02670163  RH  053%=      5-min Rain = 0
KTA1 180806Z 16009KT 27/16 A2998 RMK A01 T02670163  RH  053%=      5-min Rain = 0
KTA1 180807Z 16011KT 27/16 A2998 RMK A01 T02660163  RH  053%=      5-min Rain = 0
KTA1 180808Z 16012KT 27/16 A2998 RMK A01 T02660163  RH  053%=      5-min Rain = 0
KTA1 180809Z 15011KT 27/16 A2998 RMK A01 T02660163  RH  053%=      5-min Rain = 0
KTA1 180810Z 16010KT 27/16 A2998 RMK A01 T02660163  RH  053%=      5-min Rain = 0
KTA1 180811Z 15009KT 27/16 A2998 RMK A01 T02660163  RH  053%=      5-min Rain = 0
KTA1 180812Z 15010KT 27/16 A2998 RMK A01 T02650163  RH  053%=      5-min Rain = 0
KTA1 180813Z 15010KT 27/16 A2998 RMK A01 T02650163  RH  053%=      5-min Rain = 0
KTA1 180814Z 15011KT 27/16 A2998 RMK A01 T02650163  RH  054%=      5-min Rain = 0
KTA1 180815Z 15010KT 27/16 A2998 RMK A01 T02650163  RH  054%=      5-min Rain = 0
KTA1 180816Z 15010KT 27/16 A2998 RMK A01 T02650163  RH  054%=      5-min Rain = 0
KTA1 180817Z 15010KT 27/16 A2998 RMK A01 T02650163  RH  054%=      5-min Rain = 0
KTA1 180818Z 16009KT 26/16 A2998 RMK A01 T02640163  RH  054%=      5-min Rain = 0
KTA1 180819Z 15010KT 26/16 A2998 RMK A01 T02640164  RH  054%=      5-min Rain = 0
KTA1 180820Z 15012KT 26/16 A2998 RMK A01 T02630163  RH  054%=      5-min Rain = 0
KTA1 180821Z 15012KT 26/16 A2998 RMK A01 T02630163  RH  054%=      5-min Rain = 0
KTA1 180822Z 16010KT 26/16 A2998 RMK A01 T02630163  RH  054%=      5-min Rain = 0
KTA1 180823Z 15010KT 26/16 A2998 RMK A01 T02630163  RH  054%=      5-min Rain = 0
KTA1 180824Z 16011KT 26/16 A2998 RMK A01 T02630163  RH  054%=      5-min Rain = 0
KTA1 180825Z 15011KT 26/16 A2998 RMK A01 T02630163  RH  054%=      5-min Rain = 0
KTA1 180826Z 16011KT 26/16 A2998 RMK A01 T02630163  RH  054%=      5-min Rain = 0
KTA1 180827Z 16011KT 26/16 A2998 RMK A01 T02630163  RH  054%=      5-min Rain = 0
KTA1 180828Z 16011G16KT 26/16 A2998 RMK A01 T02630163  RH  054%=      5-min Rain = 0
KTA1 180829Z 16011KT 26/16 A2998 RMK A01 T02630163  RH  054%=      5-min Rain = 0
KTA1 180830Z 16013KT 26/16 A2998 RMK A01 T02630163  RH  054%=      5-min Rain = 0
KTA1 180831Z 16011KT 26/16 A2998 RMK A01 T02630163  RH  054%=      5-min Rain = 0
KTA1 180832Z 16013KT 26/16 A2998 RMK A01 T02630163  RH  054%=      5-min Rain = 0
KTA1 180833Z 16014KT 26/16 A2998 RMK A01 T02640163  RH  054%=      5-min Rain = 0
KTA1 180834Z 16015KT 26/16 A2998 RMK A01 T02630163  RH  054%=      5-min Rain = 0
KTA1 180835Z 16010KT 26/16 A2998 RMK A01 T02640163  RH  054%=      5-min Rain = 0
KTA1 180836Z 16012KT 26/16 A2998 RMK A01 T02630163  RH  054%=      5-min Rain = 0
KTA1 180837Z 15013KT 26/16 A2998 RMK A01 T02630164  RH  054%=      5-min Rain = 0
KTA1 180838Z 16014KT 26/16 A2998 RMK A01 T02630163  RH  054%=      5-min Rain = 0
KTA1 180839Z 16011KT 26/16 A2998 RMK A01 T02630163  RH  054%=      5-min Rain = 0
KTA1 180840Z 16011KT 26/16 A2999 RMK A01 T02630163  RH  054%=      5-min Rain = 0
KTA1 180841Z 16011KT 26/16 A2999 RMK A01 T02630164  RH  054%=      5-min Rain = 0
KTA1 180842Z 16011KT 26/16 A2999 RMK A01 T02630164  RH  054%=      5-min Rain = 0
KTA1 180843Z 16013KT 26/16 A2999 RMK A01 T02630164  RH  054%=      5-min Rain = 0
KTA1 180844Z 16010KT 26/16 A2999 RMK A01 T02630163  RH  054%=      5-min Rain = 0
KTA1 180845Z 16012KT 26/16 A2999 RMK A01 T02630163  RH  054%=      5-min Rain = 0
KTA1 180846Z 16011KT 26/16 A2999 RMK A01 T02630163  RH  054%=      5-min Rain = 0
KTA1 180847Z 16013KT 26/16 A2999 RMK A01 T02630164  RH  054%=      5-min Rain = 0
KTA1 180848Z 16012KT 26/16 A2999 RMK A01 T02630164  RH  054%=      5-min Rain = 0
KTA1 180849Z 16013KT 26/16 A2999 RMK A01 T02630164  RH  054%=      5-min Rain = 0
KTA1 180850Z 16012KT 26/16 A2999 RMK A01 T02630164  RH  054%=      5-min Rain = 0
KTA1 180851Z 16012KT 26/16 A2999 RMK A01 T02630164  RH  054%=      5-min Rain = 0
KTA1 180852Z 17011KT 26/16 A2999 RMK A01 T02630164  RH  055%=      5-min Rain = 0
KTA1 180853Z 17011KT 26/16 A2999 RMK A01 T02620164  RH  055%=      5-min Rain = 0
KTA1 180854Z 16011KT 26/16 A2999 RMK A01 T02620164  RH  055%=      5-min Rain = 0
KTA1 180855Z 16011KT 26/16 A2999 RMK A01 T02620164  RH  055%=      5-min Rain = 0
KTA1 180856Z 16011KT 26/16 A2999 RMK A01 T02620164  RH  055%=      5-min Rain = 0
KTA1 180857Z 16011KT 26/16 A2999 RMK A01 T02620164  RH  055%=      5-min Rain = 0
KTA1 180858Z 16010KT 26/17 A2999 RMK A01 T02620165  RH  055%=      5-min Rain = 0
KTA1 180859Z 16011KT 26/16 A2999 RMK A01 T02620164  RH  055%=      5-min Rain = 0
KTA1 180900Z 16011KT 26/17 A2999 RMK A01 T02620165  RH  055%=      5-min Rain = 0
KTA1 180901Z 17012KT 26/16 A2999 RMK A01 T02620164  RH  055%=      5-min Rain = 0
KTA1 180902Z 16011KT 26/16 A2999 RMK A01 T02610164  RH  055%=      5-min Rain = 0
KTA1 180903Z 16009KT 26/16 A2999 RMK A01 T02620164  RH  055%=      5-min Rain = 0
KTA1 180904Z 17009KT 26/16 A2999 RMK A01 T02610164  RH  055%=      5-min Rain = 0
KTA1 180905Z 16012KT 26/16 A2999 RMK A01 T02610164  RH  055%=      5-min Rain = 0
KTA1 180906Z 16011KT 26/16 A2999 RMK A01 T02610164  RH  055%=      5-min Rain = 0
KTA1 180907Z 16012KT 26/16 A2999 RMK A01 T02610164  RH  055%=      5-min Rain = 0
KTA1 180908Z 16012KT 26/16 A2999 RMK A01 T02610164  RH  055%=      5-min Rain = 0
KTA1 180909Z 16010KT 26/16 A2999 RMK A01 T02610164  RH  055%=      5-min Rain = 0
KTA1 180910Z 16010KT 26/17 A2999 RMK A01 T02610165  RH  055%=      5-min Rain = 0
KTA1 180911Z 17010KT 26/17 A2999 RMK A01 T02610165  RH  055%=      5-min Rain = 0
KTA1 180912Z 16012KT 26/17 A2999 RMK A01 T02610165  RH  055%=      5-min Rain = 0
KTA1 180913Z 17009KT 26/17 A2999 RMK A01 T02610165  RH  055%=      5-min Rain = 0
KTA1 180914Z 16010KT 26/17 A2999 RMK A01 T02600165  RH  055%=      5-min Rain = 0
KTA1 180915Z 16009KT 26/17 A2999 RMK A01 T02610165  RH  056%=      5-min Rain = 0
KTA1 180916Z 16012KT 26/17 A2999 RMK A01 T02600165  RH  056%=      5-min Rain = 0
KTA1 180917Z 16010KT 26/17 A2999 RMK A01 T02600165  RH  056%=      5-min Rain = 0
KTA1 180918Z 16011KT 26/17 A2999 RMK A01 T02600165  RH  056%=      5-min Rain = 0
KTA1 180919Z 17010KT 26/17 A2999 RMK A01 T02600165  RH  056%=      5-min Rain = 0
KTA1 180920Z 17010KT 26/17 A2999 RMK A01 T02600165  RH  056%=      5-min Rain = 0
KTA1 180921Z 17011KT 26/17 A30 RMK A01 T02600165  RH  056%=      5-min Rain = 0
KTA1 180922Z 17012KT 26/17 A30 RMK A01 T02600165  RH  056%=      5-min Rain = 0
KTA1 180923Z 16011KT 26/17 A30 RMK A01 T02600165  RH  056%=      5-min Rain = 0
KTA1 180924Z 17009KT 26/17 A30 RMK A01 T02600165  RH  056%=      5-min Rain = 0
KTA1 180925Z 17011KT 26/17 A30 RMK A01 T02600165  RH  056%=      5-min Rain = 0
KTA1 180926Z 17011KT 26/17 A30 RMK A01 T02600165  RH  056%=      5-min Rain = 0
KTA1 180927Z 16009KT 26/17 A30 RMK A01 T02600165  RH  056%=      5-min Rain = 0
KTA1 180928Z 17009KT 26/17 A30 RMK A01 T02590165  RH  056%=      5-min Rain = 0
KTA1 180929Z 17009KT 26/17 A30 RMK A01 T02590165  RH  056%=      5-min Rain = 0
KTA1 180930Z 17011KT 26/17 A2999 RMK A01 T02580165  RH  056%=      5-min Rain = 0
KTA1 180931Z 17010KT 26/17 A2999 RMK A01 T02580165  RH  057%=      5-min Rain = 0
KTA1 180932Z 16009KT 26/17 A2999 RMK A01 T02580165  RH  057%=      5-min Rain = 0
KTA1 180933Z 16011KT 26/17 A2999 RMK A01 T02580165  RH  057%=      5-min Rain = 0
KTA1 180934Z 17009KT 26/17 A2999 RMK A01 T02580165  RH  057%=      5-min Rain = 0
KTA1 180935Z 16011KT 26/17 A2999 RMK A01 T02570165  RH  057%=      5-min Rain = 0
KTA1 180936Z 17011KT 26/17 A2999 RMK A01 T02570165  RH  057%=      5-min Rain = 0
KTA1 180937Z 17008KT 26/17 A30 RMK A01 T02580165  RH  057%=      5-min Rain = 0
KTA1 180938Z 17010KT 26/17 A30 RMK A01 T02570165  RH  057%=      5-min Rain = 0
KTA1 180939Z 17010KT 26/17 A30 RMK A01 T02570165  RH  057%=      5-min Rain = 0
KTA1 180940Z 16010KT 26/17 A30 RMK A01 T02570165  RH  057%=      5-min Rain = 0
KTA1 180941Z 16010KT 26/17 A30 RMK A01 T02570165  RH  057%=      5-min Rain = 0
KTA1 180942Z 17010KT 26/17 A30 RMK A01 T02570165  RH  057%=      5-min Rain = 0
KTA1 180943Z 16010KT 26/17 A30 RMK A01 T02570166  RH  057%=      5-min Rain = 0
KTA1 180944Z 16010KT 26/17 A30 RMK A01 T02570166  RH  057%=      5-min Rain = 0
KTA1 180945Z 16010KT 26/17 A30 RMK A01 T02570166  RH  057%=      5-min Rain = 0
KTA1 180946Z 16010KT 26/17 A30 RMK A01 T02560165  RH  057%=      5-min Rain = 0
KTA1 180947Z 17009KT 26/17 A30 RMK A01 T02560165  RH  057%=      5-min Rain = 0
KTA1 180948Z 17008KT 26/17 A30 RMK A01 T02560165  RH  057%=      5-min Rain = 0
KTA1 180949Z 16009KT 26/17 A30 RMK A01 T02550165  RH  058%=      5-min Rain = 0
KTA1 180950Z 16010KT 26/17 A30 RMK A01 T02550166  RH  058%=      5-min Rain = 0
KTA1 180951Z 17009KT 26/17 A30 RMK A01 T02550165  RH  058%=      5-min Rain = 0
KTA1 180952Z 17010KT 26/17 A30 RMK A01 T02550166  RH  058%=      5-min Rain = 0
KTA1 180953Z 17010KT 26/17 A30 RMK A01 T02550165  RH  058%=      5-min Rain = 0
KTA1 180954Z 17010KT 26/17 A30 RMK A01 T02550165  RH  057%=      5-min Rain = 0
KTA1 180955Z 17010KT 26/17 A30 RMK A01 T02560165  RH  057%=      5-min Rain = 0
KTA1 180956Z 17010KT 26/17 A30 RMK A01 T02560166  RH  057%=      5-min Rain = 0
KTA1 180957Z 17008KT 26/17 A30 RMK A01 T02550166  RH  057%=      5-min Rain = 0
KTA1 180958Z 16010KT 26/17 A30 RMK A01 T02550166  RH  058%=      5-min Rain = 0
KTA1 180959Z 17011KT 26/17 A30 RMK A01 T02550166  RH  058%=      5-min Rain = 0
KTA1 181000Z 17009KT 26/17 A30 RMK A01 T02550166  RH  058%=      5-min Rain = 0
KTA1 181001Z 17011KT 26/17 A30 RMK A01 T02550166  RH  058%=      5-min Rain = 0
KTA1 181002Z 17009KT 26/17 A30 RMK A01 T02550166  RH  058%=      5-min Rain = 0
KTA1 181003Z 16009KT 26/17 A30 RMK A01 T02550166  RH  058%=      5-min Rain = 0
KTA1 181004Z 16009KT 26/17 A30 RMK A01 T02550166  RH  058%=      5-min Rain = 0
KTA1 181005Z 16009KT 26/17 A30 RMK A01 T02550166  RH  058%=      5-min Rain = 0
KTA1 181006Z 17008KT 25/17 A30 RMK A01 T02540166  RH  058%=      5-min Rain = 0
KTA1 181007Z 17010KT 25/17 A30 RMK A01 T02540165  RH  058%=      5-min Rain = 0
KTA1 181008Z 17011KT 25/17 A30 RMK A01 T02540166  RH  058%=      5-min Rain = 0
KTA1 181009Z 16008KT 25/17 A30 RMK A01 T02540166  RH  058%=      5-min Rain = 0
KTA1 181010Z 16010KT 25/17 A30 RMK A01 T02540166  RH  058%=      5-min Rain = 0
KTA1 181011Z 16010KT 25/17 A30 RMK A01 T02540166  RH  058%=      5-min Rain = 0
KTA1 181012Z 16011KT 25/17 A30 RMK A01 T02530166  RH  058%=      5-min Rain = 0
KTA1 181013Z 16010KT 25/17 A30 RMK A01 T02530165  RH  058%=      5-min Rain = 0
KTA1 181014Z 16009KT 25/17 A30 RMK A01 T02530165  RH  058%=      5-min Rain = 0
KTA1 181015Z 17008KT 25/17 A30 RMK A01 T02530165  RH  058%=      5-min Rain = 0
KTA1 181016Z 17008KT 25/17 A30 RMK A01 T02530166  RH  058%=      5-min Rain = 0
KTA1 181017Z 17009KT 25/17 A30 RMK A01 T02530166  RH  058%=      5-min Rain = 0
KTA1 181018Z 17008KT 25/17 A30 RMK A01 T02530166  RH  058%=      5-min Rain = 0
KTA1 181019Z 17010KT 25/17 A30 RMK A01 T02530166  RH  059%=      5-min Rain = 0
KTA1 181020Z 17009KT 25/17 A30 RMK A01 T02530166  RH  058%=      5-min Rain = 0
KTA1 181021Z 17009KT 25/17 A3001 RMK A01 T02530166  RH  058%=      5-min Rain = 0
KTA1 181022Z 18009KT 25/17 A3001 RMK A01 T02530166  RH  058%=      5-min Rain = 0
KTA1 181023Z 17008KT 25/17 A3001 RMK A01 T02530166  RH  058%=      5-min Rain = 0
KTA1 181024Z 17009KT 25/17 A3001 RMK A01 T02530166  RH  059%=      5-min Rain = 0
KTA1 181025Z 17009KT 25/17 A3001 RMK A01 T02520166  RH  059%=      5-min Rain = 0
KTA1 181026Z 17010KT 25/17 A30 RMK A01 T02520166  RH  059%=      5-min Rain = 0
KTA1 181027Z 17009KT 25/17 A30 RMK A01 T02530166  RH  059%=      5-min Rain = 0
KTA1 181028Z 17008KT 25/17 A30 RMK A01 T02520166  RH  059%=      5-min Rain = 0
KTA1 181029Z 17008KT 25/17 A30 RMK A01 T02520166  RH  059%=      5-min Rain = 0
KTA1 181030Z 17008KT 25/17 A30 RMK A01 T02520166  RH  059%=      5-min Rain = 0
KTA1 181031Z 18009KT 25/17 A30 RMK A01 T02520166  RH  059%=      5-min Rain = 0
KTA1 181032Z 17009KT 25/17 A30 RMK A01 T02520166  RH  059%=      5-min Rain = 0
KTA1 181033Z 17010KT 25/17 A30 RMK A01 T02520166  RH  059%=      5-min Rain = 0
KTA1 181034Z 17008KT 25/17 A30 RMK A01 T02520166  RH  059%=      5-min Rain = 0
KTA1 181035Z 17007KT 25/17 A30 RMK A01 T02520166  RH  059%=      5-min Rain = 0
KTA1 181036Z 17009KT 25/17 A30 RMK A01 T02520166  RH  059%=      5-min Rain = 0
KTA1 181037Z 17009KT 25/17 A30 RMK A01 T02520166  RH  059%=      5-min Rain = 0
KTA1 181038Z 17009KT 25/17 A30 RMK A01 T02520166  RH  059%=      5-min Rain = 0
KTA1 181039Z 17008KT 25/17 A30 RMK A01 T02520166  RH  059%=      5-min Rain = 0
KTA1 181040Z 17009KT 25/17 A30 RMK A01 T02510166  RH  059%=      5-min Rain = 0
KTA1 181041Z 17010KT 25/17 A30 RMK A01 T02510166  RH  059%=      5-min Rain = 0
KTA1 181042Z 17009KT 25/17 A30 RMK A01 T02510166  RH  059%=      5-min Rain = 0
KTA1 181043Z 17008KT 25/17 A30 RMK A01 T02510167  RH  059%=      5-min Rain = 0
KTA1 181044Z 17009KT 25/17 A30 RMK A01 T02510166  RH  059%=      5-min Rain = 0
KTA1 181045Z 17009KT 25/17 A30 RMK A01 T02510166  RH  059%=      5-min Rain = 0
KTA1 181046Z 17009KT 25/17 A30 RMK A01 T02510167  RH  060%=      5-min Rain = 0
KTA1 181047Z 17009KT 25/17 A30 RMK A01 T02500166  RH  060%=      5-min Rain = 0
KTA1 181048Z 17008KT 25/17 A30 RMK A01 T02500166  RH  060%=      5-min Rain = 0
KTA1 181049Z 17007KT 25/17 A30 RMK A01 T02500166  RH  060%=      5-min Rain = 0
KTA1 181050Z 17008KT 25/17 A30 RMK A01 T02490166  RH  060%=      5-min Rain = 0
KTA1 181051Z 17009KT 25/17 A30 RMK A01 T02490167  RH  060%=      5-min Rain = 0
KTA1 181052Z 17009KT 25/17 A30 RMK A01 T02490167  RH  060%=      5-min Rain = 0
KTA1 181053Z 17008KT 25/17 A30 RMK A01 T02490166  RH  060%=      5-min Rain = 0
KTA1 181054Z 17008KT 25/17 A30 RMK A01 T02490167  RH  060%=      5-min Rain = 0
KTA1 181055Z 17008KT 25/17 A30 RMK A01 T02490167  RH  060%=      5-min Rain = 0
KTA1 181056Z 17008KT 25/17 A30 RMK A01 T02490167  RH  060%=      5-min Rain = 0
KTA1 181057Z 17009KT 25/17 A30 RMK A01 T02490167  RH  060%=      5-min Rain = 0
KTA1 181058Z 17008KT 25/17 A30 RMK A01 T02480167  RH  060%=      5-min Rain = 0
KTA1 181059Z 17008KT 25/17 A30 RMK A01 T02480167  RH  060%=      5-min Rain = 0
KTA1 181100Z 17009KT 25/17 A3001 RMK A01 T02480167  RH  061%=      5-min Rain = 0
KTA1 181101Z 16008KT 25/17 A30 RMK A01 T02480167  RH  061%=      5-min Rain = 0
KTA1 181102Z 17008KT 25/17 A3001 RMK A01 T02480167  RH  061%=      5-min Rain = 0
KTA1 181103Z 17008KT 25/17 A3001 RMK A01 T02480167  RH  061%=      5-min Rain = 0
KTA1 181104Z 17007KT 25/17 A3001 RMK A01 T02480167  RH  061%=      5-min Rain = 0
KTA1 181105Z 16007KT 25/17 A3001 RMK A01 T02470167  RH  061%=      5-min Rain = 0
KTA1 181106Z 17008KT 25/17 A3001 RMK A01 T02470167  RH  061%=      5-min Rain = 0
KTA1 181107Z 16008KT 25/17 A3001 RMK A01 T02460167  RH  061%=      5-min Rain = 0
KTA1 181108Z 17007KT 25/17 A3001 RMK A01 T02460167  RH  061%=      5-min Rain = 0
KTA1 181109Z 17006KT 25/17 A3001 RMK A01 T02460167  RH  062%=      5-min Rain = 0
KTA1 181110Z 17008KT 25/17 A3001 RMK A01 T02450167  RH  062%=      5-min Rain = 0
KTA1 181111Z 17007KT 25/17 A3001 RMK A01 T02460168  RH  062%=      5-min Rain = 0
KTA1 181112Z 16007KT 25/17 A3001 RMK A01 T02450167  RH  062%=      5-min Rain = 0
KTA1 181113Z 17006KT 25/17 A3001 RMK A01 T02460167  RH  062%=      5-min Rain = 0
KTA1 181114Z 17005KT 25/17 A3001 RMK A01 T02450168  RH  062%=      5-min Rain = 0
KTA1 181115Z 17006KT 25/17 A3001 RMK A01 T02450168  RH  062%=      5-min Rain = 0
KTA1 181116Z 17006KT 25/17 A3001 RMK A01 T02450168  RH  062%=      5-min Rain = 0
KTA1 181117Z 17007KT 25/17 A3001 RMK A01 T02450168  RH  062%=      5-min Rain = 0
KTA1 181118Z 16007KT 25/17 A3001 RMK A01 T02450168  RH  062%=      5-min Rain = 0
KTA1 181119Z 16007KT 25/17 A3001 RMK A01 T02450169  RH  062%=      5-min Rain = 0
KTA1 181120Z 17006KT 25/17 A3001 RMK A01 T02450168  RH  062%=      5-min Rain = 0
KTA1 181121Z 16007KT 24/17 A3001 RMK A01 T02440169  RH  063%=      5-min Rain = 0
KTA1 181122Z 16006KT 24/17 A3001 RMK A01 T02440169  RH  063%=      5-min Rain = 0
KTA1 181123Z 16006KT 24/17 A3001 RMK A01 T02430168  RH  063%=      5-min Rain = 0
KTA1 181124Z 17006KT 24/17 A3001 RMK A01 T02430168  RH  063%=      5-min Rain = 0
KTA1 181125Z 16007KT 24/17 A3001 RMK A01 T02430168  RH  063%=      5-min Rain = 0
KTA1 181126Z 17007KT 24/17 A3001 RMK A01 T02430168  RH  063%=      5-min Rain = 0
KTA1 181127Z 17006KT 24/17 A3001 RMK A01 T02430168  RH  063%=      5-min Rain = 0
KTA1 181128Z 17006KT 24/17 A3001 RMK A01 T02420168  RH  063%=      5-min Rain = 0
KTA1 181129Z 16007KT 24/17 A3001 RMK A01 T02420168  RH  063%=      5-min Rain = 0
KTA1 181130Z 17007KT 24/17 A3001 RMK A01 T02420169  RH  064%=      5-min Rain = 0
KTA1 181131Z 16007KT 24/17 A3001 RMK A01 T02420169  RH  064%=      5-min Rain = 0
KTA1 181132Z 16008KT 24/17 A3001 RMK A01 T02410169  RH  064%=      5-min Rain = 0
KTA1 181133Z 16008KT 24/17 A30 RMK A01 T02410169  RH  064%=      5-min Rain = 0
KTA1 181134Z 16008KT 24/17 A30 RMK A01 T02410169  RH  064%=      5-min Rain = 0
KTA1 181135Z 15007KT 24/17 A30 RMK A01 T02400168  RH  064%=      5-min Rain = 0
KTA1 181136Z 15007KT 24/17 A30 RMK A01 T02400169  RH  064%=      5-min Rain = 0
KTA1 181137Z 15007KT 24/17 A30 RMK A01 T02390168  RH  065%=      5-min Rain = 0
KTA1 181138Z 15007KT 24/17 A30 RMK A01 T02390168  RH  065%=      5-min Rain = 0
KTA1 181139Z 16008KT 24/17 A30 RMK A01 T02380168  RH  065%=      5-min Rain = 0
KTA1 181140Z 16008KT 24/17 A30 RMK A01 T02380168  RH  065%=      5-min Rain = 0
KTA1 181141Z 15007KT 24/17 A30 RMK A01 T02380168  RH  065%=      5-min Rain = 0
KTA1 181142Z 16007KT 24/17 A30 RMK A01 T02380168  RH  065%=      5-min Rain = 0
KTA1 181143Z 15005KT 24/17 A30 RMK A01 T02380169  RH  065%=      5-min Rain = 0
KTA1 181144Z 15007KT 24/17 A30 RMK A01 T02370169  RH  065%=      5-min Rain = 0
KTA1 181145Z 15006KT 24/17 A30 RMK A01 T02370169  RH  066%=      5-min Rain = 0
KTA1 181146Z 15007KT 24/17 A30 RMK A01 T02360169  RH  066%=      5-min Rain = 0
KTA1 181147Z 16007KT 24/17 A30 RMK A01 T02360169  RH  066%=      5-min Rain = 0
KTA1 181148Z 15007KT 24/17 A30 RMK A01 T02360169  RH  066%=      5-min Rain = 0
KTA1 181149Z 15008KT 24/17 A30 RMK A01 T02360169  RH  066%=      5-min Rain = 0
KTA1 181150Z 15009KT 24/17 A30 RMK A01 T02350169  RH  066%=      5-min Rain = 0
KTA1 181151Z 15007KT 24/17 A30 RMK A01 T02350169  RH  066%=      5-min Rain = 0
KTA1 181152Z 15007KT 24/17 A30 RMK A01 T02360169  RH  066%=      5-min Rain = 0
KTA1 181153Z 16008KT 24/17 A30 RMK A01 T02350169  RH  066%=      5-min Rain = 0
KTA1 181154Z 16008KT 24/17 A30 RMK A01 T02350169  RH  066%=      5-min Rain = 0
KTA1 181155Z 16008KT 24/17 A30 RMK A01 T02350169  RH  067%=      5-min Rain = 0
KTA1 181156Z 16008KT 24/17 A30 RMK A01 T02350169  RH  066%=      5-min Rain = 0
KTA1 181157Z 16008KT 24/17 A30 RMK A01 T02350169  RH  067%=      5-min Rain = 0
KTA1 181158Z 16007KT 24/17 A30 RMK A01 T02350169  RH  067%=      5-min Rain = 0
KTA1 181159Z 16007KT 24/17 A30 RMK A01 T02350170  RH  067%=      5-min Rain = 0
KTA1 181200Z 16007KT 24/17 A30 RMK A01 T02350170  RH  067%=      5-min Rain = 0
KTA1 181201Z 16007KT 24/17 A30 RMK A01 T02350170  RH  067%=      5-min Rain = 0
KTA1 181202Z 16008KT 24/17 A30 RMK A01 T02350171  RH  067%=      5-min Rain = 0
KTA1 181203Z 16009KT 24/17 A30 RMK A01 T02350171  RH  067%=      5-min Rain = 0
KTA1 181204Z 16008KT 24/17 A30 RMK A01 T02350171  RH  067%=      5-min Rain = 0
KTA1 181205Z 16008KT 24/17 A30 RMK A01 T02360171  RH  067%=      5-min Rain = 0
KTA1 181206Z 16008KT 24/17 A30 RMK A01 T02360171  RH  067%=      5-min Rain = 0
KTA1 181207Z 16009KT 24/17 A30 RMK A01 T02370172  RH  067%=      5-min Rain = 0
KTA1 181208Z 16009KT 24/17 A30 RMK A01 T02370172  RH  067%=      5-min Rain = 0
KTA1 181209Z 16007KT 24/17 A30 RMK A01 T02370172  RH  067%=      5-min Rain = 0
KTA1 181210Z 16008KT 24/17 A30 RMK A01 T02370172  RH  067%=      5-min Rain = 0
KTA1 181211Z 16007KT 24/17 A3001 RMK A01 T02380172  RH  067%=      5-min Rain = 0
KTA1 181212Z 16008KT 24/17 A3001 RMK A01 T02380173  RH  067%=      5-min Rain = 0
KTA1 181213Z 16009KT 24/17 A3001 RMK A01 T02380173  RH  067%=      5-min Rain = 0
KTA1 181214Z 16009KT 24/17 A3001 RMK A01 T02390173  RH  067%=      5-min Rain = 0
KTA1 181215Z 16008KT 24/17 A3001 RMK A01 T02390174  RH  067%=      5-min Rain = 0
KTA1 181216Z 16009KT 24/17 A3001 RMK A01 T02390174  RH  067%=      5-min Rain = 0
KTA1 181217Z 16008KT 24/17 A30 RMK A01 T02400174  RH  067%=      5-min Rain = 0
KTA1 181218Z 16007KT 24/17 A3001 RMK A01 T02400174  RH  067%=      5-min Rain = 0
KTA1 181219Z 16008KT 24/18 A3001 RMK A01 T02400175  RH  067%=      5-min Rain = 0
KTA1 181220Z 16008KT 24/18 A3001 RMK A01 T02400175  RH  067%=      5-min Rain = 0
KTA1 181221Z 16008KT 24/18 A3001 RMK A01 T02400175  RH  067%=      5-min Rain = 0
KTA1 181222Z 16009KT 24/18 A3001 RMK A01 T02400175  RH  067%=      5-min Rain = 0
KTA1 181223Z 16008KT 24/18 A3001 RMK A01 T02400175  RH  067%=      5-min Rain = 0
KTA1 181224Z 16009KT 24/18 A3001 RMK A01 T02400175  RH  067%=      5-min Rain = 0
KTA1 181225Z 16010KT 24/18 A3001 RMK A01 T02410175  RH  067%=      5-min Rain = 0
KTA1 181226Z 17010KT 24/18 A3001 RMK A01 T02410175  RH  067%=      5-min Rain = 0
KTA1 181227Z 16010KT 24/18 A3001 RMK A01 T02420176  RH  067%=      5-min Rain = 0
KTA1 181228Z 16009KT 24/18 A30 RMK A01 T02420176  RH  066%=      5-min Rain = 0
KTA1 181229Z 16009KT 24/18 A30 RMK A01 T02420176  RH  066%=      5-min Rain = 0
KTA1 181230Z 16009KT 24/18 A30 RMK A01 T02430176  RH  066%=      5-min Rain = 0
KTA1 181231Z 16010KT 24/18 A30 RMK A01 T02430176  RH  066%=      5-min Rain = 0
KTA1 181232Z 17010KT 24/18 A30 RMK A01 T02430176  RH  066%=      5-min Rain = 0
KTA1 181233Z 16010KT 24/18 A30 RMK A01 T02430177  RH  066%=      5-min Rain = 0
KTA1 181234Z 16010KT 24/18 A30 RMK A01 T02440177  RH  066%=      5-min Rain = 0
KTA1 181235Z 17009KT 24/18 A30 RMK A01 T02440177  RH  066%=      5-min Rain = 0
KTA1 181236Z 16011KT 24/18 A30 RMK A01 T02440177  RH  066%=      5-min Rain = 0
KTA1 181237Z 17010KT 24/18 A30 RMK A01 T02440177  RH  066%=      5-min Rain = 0
KTA1 181238Z 17010KT 25/18 A30 RMK A01 T02450178  RH  066%=      5-min Rain = 0
KTA1 181239Z 17011KT 25/18 A30 RMK A01 T02450178  RH  066%=      5-min Rain = 0
KTA1 181240Z 17010KT 25/18 A30 RMK A01 T02460178  RH  066%=      5-min Rain = 0
KTA1 181241Z 17009KT 25/18 A30 RMK A01 T02460178  RH  066%=      5-min Rain = 0
KTA1 181242Z 17008KT 25/18 A30 RMK A01 T02470179  RH  066%=      5-min Rain = 0
KTA1 181243Z 17010KT 25/18 A30 RMK A01 T02470179  RH  066%=      5-min Rain = 0
KTA1 181244Z 16010KT 25/18 A30 RMK A01 T02470180  RH  066%=      5-min Rain = 0
KTA1 181245Z 17010KT 25/18 A30 RMK A01 T02470180  RH  066%=      5-min Rain = 0
KTA1 181246Z 17010KT 25/18 A30 RMK A01 T02480180  RH  066%=      5-min Rain = 0
KTA1 181247Z 17010KT 25/18 A30 RMK A01 T02480181  RH  066%=      5-min Rain = 0
KTA1 181248Z 17011KT 25/18 A30 RMK A01 T02480181  RH  066%=      5-min Rain = 0
KTA1 181249Z 17010KT 25/18 A30 RMK A01 T02490181  RH  066%=      5-min Rain = 0
KTA1 181250Z 17011KT 25/18 A30 RMK A01 T02490182  RH  066%=      5-min Rain = 0
KTA1 181251Z 17010KT 25/18 A3001 RMK A01 T02490182  RH  066%=      5-min Rain = 0
KTA1 181252Z 17010KT 25/18 A3001 RMK A01 T02500182  RH  066%=      5-min Rain = 0
KTA1 181253Z 17010KT 25/18 A3001 RMK A01 T02500183  RH  066%=      5-min Rain = 0
KTA1 181254Z 18009KT 25/18 A3001 RMK A01 T02510183  RH  066%=      5-min Rain = 0
KTA1 181255Z 17009KT 25/18 A3001 RMK A01 T02510184  RH  066%=      5-min Rain = 0
KTA1 181256Z 18007KT 25/18 A3001 RMK A01 T02520184  RH  066%=      5-min Rain = 0
KTA1 181257Z 18011KT 25/19 A3001 RMK A01 T02530185  RH  066%=      5-min Rain = 0
KTA1 181258Z 18012KT 25/19 A3001 RMK A01 T02530185  RH  066%=      5-min Rain = 0
KTA1 181259Z 17009KT 25/19 A3001 RMK A01 T02530185  RH  066%=      5-min Rain = 0
KTA1 181300Z 17011KT 25/19 A3001 RMK A01 T02540186  RH  066%=      5-min Rain = 0
KTA1 181301Z 17009KT 25/19 A3001 RMK A01 T02540186  RH  066%=      5-min Rain = 0
KTA1 181302Z 18009KT 26/19 A3001 RMK A01 T02550187  RH  066%=      5-min Rain = 0
KTA1 181303Z 17008KT 26/19 A3001 RMK A01 T02550187  RH  066%=      5-min Rain = 0
KTA1 181304Z 18010KT 26/19 A3001 RMK A01 T02560187  RH  066%=      5-min Rain = 0
KTA1 181305Z 18012KT 26/19 A3001 RMK A01 T02560187  RH  066%=      5-min Rain = 0
KTA1 181306Z 18012KT 26/19 A3001 RMK A01 T02560188  RH  066%=      5-min Rain = 0
KTA1 181307Z 18009KT 26/19 A3001 RMK A01 T02560188  RH  066%=      5-min Rain = 0
KTA1 181308Z 18008KT 26/19 A3001 RMK A01 T02570188  RH  066%=      5-min Rain = 0
KTA1 181309Z 18009KT 26/19 A3001 RMK A01 T02570189  RH  066%=      5-min Rain = 0
KTA1 181310Z 18011KT 26/19 A3001 RMK A01 T02570189  RH  066%=      5-min Rain = 0
KTA1 181311Z 18011KT 26/19 A3001 RMK A01 T02570189  RH  066%=      5-min Rain = 0
KTA1 181312Z 18013KT 26/19 A3001 RMK A01 T02580190  RH  066%=      5-min Rain = 0
KTA1 181313Z 18012KT 26/19 A3001 RMK A01 T02580190  RH  066%=      5-min Rain = 0
KTA1 181314Z 18014KT 26/19 A3001 RMK A01 T02590191  RH  066%=      5-min Rain = 0
KTA1 181315Z 17013KT 26/19 A3001 RMK A01 T02590190  RH  066%=      5-min Rain = 0
KTA1 181316Z 18013KT 26/19 A3001 RMK A01 T02600191  RH  066%=      5-min Rain = 0
KTA1 181317Z 18012KT 26/19 A3001 RMK A01 T02600191  RH  066%=      5-min Rain = 0
KTA1 181318Z 18014KT 26/19 A3001 RMK A01 T02610191  RH  066%=      5-min Rain = 0
KTA1 181319Z 18013KT 26/19 A3001 RMK A01 T02610191  RH  065%=      5-min Rain = 0
KTA1 181320Z 18014KT 26/19 A3001 RMK A01 T02610192  RH  065%=      5-min Rain = 0
KTA1 181321Z 18018KT 26/19 A3001 RMK A01 T02620191  RH  065%=      5-min Rain = 0
KTA1 181322Z 18014G19KT 26/19 A3001 RMK A01 T02620191  RH  065%=      5-min Rain = 0
KTA1 181323Z 18016KT 26/19 A3001 RMK A01 T02620191  RH  065%=      5-min Rain = 0
KTA1 181324Z 18013KT 26/19 A3001 RMK A01 T02620192  RH  065%=      5-min Rain = 0
KTA1 181325Z 18014KT 26/19 A3001 RMK A01 T02630192  RH  065%=      5-min Rain = 0
KTA1 181326Z 18014KT 26/19 A3001 RMK A01 T02630192  RH  065%=      5-min Rain = 0
KTA1 181327Z 17011KT 26/19 A3001 RMK A01 T02640192  RH  065%=      5-min Rain = 0
KTA1 181328Z 18013G19KT 26/19 A3001 RMK A01 T02640192  RH  065%=      5-min Rain = 0
KTA1 181329Z 17015KT 27/19 A3001 RMK A01 T02650192  RH  064%=      5-min Rain = 0
KTA1 181330Z 17015KT 27/19 A3001 RMK A01 T02650192  RH  064%=      5-min Rain = 0
KTA1 181331Z 17012KT 27/19 A3001 RMK A01 T02650192  RH  064%=      5-min Rain = 0
KTA1 181332Z 17016G21KT 27/19 A3001 RMK A01 T02650192  RH  064%=      5-min Rain = 0
KTA1 181333Z 18016KT 27/19 A3001 RMK A01 T02660192  RH  064%=      5-min Rain = 0
KTA1 181334Z 17017KT 27/19 A3001 RMK A01 T02660192  RH  064%=      5-min Rain = 0
KTA1 181335Z 17017G22KT 27/19 A3001 RMK A01 T02660192  RH  064%=      5-min Rain = 0
KTA1 181336Z 17016KT 27/19 A3001 RMK A01 T02660192  RH  064%=      5-min Rain = 0
KTA1 181337Z 18017KT 27/19 A3001 RMK A01 T02660192  RH  064%=      5-min Rain = 0
KTA1 181338Z 18015KT 27/19 A3001 RMK A01 T02660191  RH  064%=      5-min Rain = 0
KTA1 181339Z 18016KT 27/19 A3001 RMK A01 T02660192  RH  064%=      5-min Rain = 0
KTA1 181340Z 18013KT 27/19 A3001 RMK A01 T02670192  RH  064%=      5-min Rain = 0
KTA1 181341Z 18014KT 27/19 A3001 RMK A01 T02670192  RH  064%=      5-min Rain = 0
KTA1 181342Z 18015KT 27/19 A3001 RMK A01 T02680192  RH  063%=      5-min Rain = 0
KTA1 181343Z 18012KT 27/19 A3001 RMK A01 T02680192  RH  063%=      5-min Rain = 0
KTA1 181344Z 18015KT 27/19 A3001 RMK A01 T02680192  RH  063%=      5-min Rain = 0
KTA1 181345Z 18010KT 27/19 A3001 RMK A01 T02680193  RH  063%=      5-min Rain = 0
KTA1 181346Z 19014KT 27/19 A3001 RMK A01 T02700193  RH  063%=      5-min Rain = 0
KTA1 181347Z 17012KT 27/19 A3001 RMK A01 T02700194  RH  063%=      5-min Rain = 0
KTA1 181348Z 18013KT 27/19 A3001 RMK A01 T02710194  RH  063%=      5-min Rain = 0
KTA1 181349Z 18012G17KT 27/19 A3001 RMK A01 T02710193  RH  062%=      5-min Rain = 0
KTA1 181350Z 18012KT 27/19 A3001 RMK A01 T02710193  RH  062%=      5-min Rain = 0
KTA1 181351Z 18017KT 27/19 A3001 RMK A01 T02710193  RH  062%=      5-min Rain = 0
KTA1 181352Z 18015G20KT 27/19 A3001 RMK A01 T02700192  RH  062%=      5-min Rain = 0
KTA1 181353Z 17014KT 27/19 A3001 RMK A01 T02700193  RH  063%=      5-min Rain = 0
KTA1 181354Z 18016KT 27/19 A3001 RMK A01 T02700192  RH  062%=      5-min Rain = 0
KTA1 181355Z 17013KT 27/19 A3001 RMK A01 T02700193  RH  062%=      5-min Rain = 0
KTA1 181356Z 18012G17KT 27/19 A3001 RMK A01 T02720194  RH  062%=      5-min Rain = 0
KTA1 181357Z 18016KT 27/19 A3001 RMK A01 T02730194  RH  062%=      5-min Rain = 0
KTA1 181358Z 19017KT 27/19 A3001 RMK A01 T02730193  RH  062%=      5-min Rain = 0
KTA1 181359Z 18012G17KT 27/19 A3001 RMK A01 T02720193  RH  062%=      5-min Rain = 0
KTA1 181400Z 18012KT 27/19 A3001 RMK A01 T02720194  RH  062%=      5-min Rain = 0
KTA1 181401Z 18012G18KT 27/19 A3001 RMK A01 T02740194  RH  062%=      5-min Rain = 0
KTA1 181402Z 18016KT 28/19 A3001 RMK A01 T02750192  RH  061%=      5-min Rain = 0
KTA1 181403Z 18014KT 27/19 A3001 RMK A01 T02740193  RH  061%=      5-min Rain = 0
KTA1 181404Z 18015KT 27/19 A3001 RMK A01 T02740192  RH  061%=      5-min Rain = 0
KTA1 181405Z 19016KT 27/19 A3001 RMK A01 T02740192  RH  061%=      5-min Rain = 0
KTA1 181406Z 18016KT 27/19 A3001 RMK A01 T02740191  RH  061%=      5-min Rain = 0
KTA1 181407Z 19016KT 27/19 A3001 RMK A01 T02740191  RH  061%=      5-min Rain = 0
KTA1 181408Z 18012KT 27/19 A3001 RMK A01 T02740192  RH  061%=      5-min Rain = 0
KTA1 181409Z 18012KT 27/19 A3001 RMK A01 T02740193  RH  061%=      5-min Rain = 0
KTA1 181410Z 19012KT 28/19 A3001 RMK A01 T02770194  RH  061%=      5-min Rain = 0
KTA1 181411Z 18015KT 28/19 A3001 RMK A01 T02770193  RH  060%=      5-min Rain = 0
KTA1 181412Z 17016KT 28/19 A3001 RMK A01 T02780192  RH  059%=      5-min Rain = 0
KTA1 181413Z 18015KT 28/19 A3001 RMK A01 T02780191  RH  059%=      5-min Rain = 0
KTA1 181414Z 17016KT 28/19 A3001 RMK A01 T02770190  RH  059%=      5-min Rain = 0
KTA1 181415Z 18014G19KT 28/19 A3001 RMK A01 T02770190  RH  059%=      5-min Rain = 0
KTA1 181416Z 19012KT 28/19 A3001 RMK A01 T02770191  RH  060%=      5-min Rain = 0
KTA1 181417Z 19015KT 28/19 A3001 RMK A01 T02780191  RH  059%=      5-min Rain = 0
KTA1 181418Z 18014KT 28/19 A3001 RMK A01 T02780191  RH  059%=      5-min Rain = 0
KTA1 181419Z 17014G19KT 28/19 A3001 RMK A01 T02780191  RH  059%=      5-min Rain = 0
KTA1 181420Z 18017KT 28/19 A3001 RMK A01 T02790191  RH  059%=      5-min Rain = 0
KTA1 181421Z 18018KT 28/19 A3001 RMK A01 T02790190  RH  059%=      5-min Rain = 0
KTA1 181422Z 18017KT 28/19 A3001 RMK A01 T02780190  RH  058%=      5-min Rain = 0
KTA1 181423Z 18016KT 28/19 A3001 RMK A01 T02780190  RH  059%=      5-min Rain = 0
KTA1 181424Z 18013KT 28/19 A3001 RMK A01 T02780191  RH  059%=      5-min Rain = 0
KTA1 181425Z 19016G21KT 28/19 A3001 RMK A01 T02790190  RH  059%=      5-min Rain = 0
KTA1 181426Z 17015KT 28/19 A3001 RMK A01 T02790190  RH  058%=      5-min Rain = 0
KTA1 181427Z 17014G19KT 28/19 A3001 RMK A01 T02800190  RH  058%=      5-min Rain = 0
KTA1 181428Z 17016KT 28/19 A3001 RMK A01 T02810190  RH  058%=      5-min Rain = 0
KTA1 181429Z 17015KT 28/19 A3001 RMK A01 T02810190  RH  058%=      5-min Rain = 0
KTA1 181430Z 17016KT 28/19 A3001 RMK A01 T02810190  RH  058%=      5-min Rain = 0
KTA1 181431Z 18016G22KT 28/19 A3001 RMK A01 T02810190  RH  058%=      5-min Rain = 0
KTA1 181432Z 17015KT 28/19 A3001 RMK A01 T02810191  RH  058%=      5-min Rain = 0
KTA1 181433Z 17014KT 28/19 A3001 RMK A01 T02820191  RH  058%=      5-min Rain = 0
KTA1 181434Z 18016KT 28/19 A3001 RMK A01 T02820191  RH  058%=      5-min Rain = 0
KTA1 181435Z 19013KT 28/19 A3001 RMK A01 T02820191  RH  058%=      5-min Rain = 0
KTA1 181436Z 18012KT 28/19 A3001 RMK A01 T02830192  RH  058%=      5-min Rain = 0
KTA1 181437Z 20013KT 29/19 A3001 RMK A01 T02850191  RH  056%=      5-min Rain = 0
KTA1 181438Z 18013KT 29/19 A3001 RMK A01 T02860191  RH  056%=      5-min Rain = 0
KTA1 181439Z 18013KT 29/19 A3001 RMK A01 T02870191  RH  056%=      5-min Rain = 0
KTA1 181440Z 18017KT 29/19 A30 RMK A01 T02860190  RH  056%=      5-min Rain = 0
KTA1 181441Z 19013KT 29/19 A3001 RMK A01 T02850189  RH  056%=      5-min Rain = 0
KTA1 181442Z 19013G18KT 29/19 A3001 RMK A01 T02850190  RH  057%=      5-min Rain = 0
KTA1 181443Z 18014KT 29/19 A30 RMK A01 T02860189  RH  056%=      5-min Rain = 0
KTA1 181444Z 18015KT 29/19 A30 RMK A01 T02860189  RH  056%=      5-min Rain = 0
KTA1 181445Z 18014G19KT 29/19 A30 RMK A01 T02860189  RH  056%=      5-min Rain = 0
KTA1 181446Z 19014KT 29/19 A30 RMK A01 T02850190  RH  056%=      5-min Rain = 0
KTA1 181447Z 19014KT 29/19 A30 RMK A01 T02850189  RH  056%=      5-min Rain = 0
KTA1 181448Z 18012KT 29/19 A30 RMK A01 T02850189  RH  056%=      5-min Rain = 0
KTA1 181449Z 18014KT 29/19 A30 RMK A01 T02850188  RH  056%=      5-min Rain = 0
KTA1 181450Z 18013KT 29/19 A30 RMK A01 T02850188  RH  056%=      5-min Rain = 0
KTA1 181451Z 17013G18KT 29/19 A30 RMK A01 T02860188  RH  056%=      5-min Rain = 0
KTA1 181452Z 17012KT 29/19 A30 RMK A01 T02870190  RH  056%=      5-min Rain = 0
KTA1 181453Z 17015KT 29/19 A30 RMK A01 T02880190  RH  055%=      5-min Rain = 0
KTA1 181454Z 18013KT 29/19 A30 RMK A01 T02890190  RH  055%=      5-min Rain = 0
KTA1 181455Z 17013KT 29/19 A30 RMK A01 T02890190  RH  055%=      5-min Rain = 0
KTA1 181456Z 18013KT 29/19 A30 RMK A01 T02900190  RH  055%=      5-min Rain = 0
KTA1 181457Z 18013KT 29/19 A30 RMK A01 T02900190  RH  055%=      5-min Rain = 0
KTA1 181458Z 18011G17KT 29/19 A30 RMK A01 T02890192  RH  056%=      5-min Rain = 0
KTA1 181459Z 18013KT 29/19 A30 RMK A01 T02900191  RH  055%=      5-min Rain = 0
KTA1 181500Z 17014KT 29/19 A30 RMK A01 T02900192  RH  056%=      5-min Rain = 0
KTA1 181501Z 17014KT 29/19 A30 RMK A01 T02910192  RH  055%=      5-min Rain = 0
KTA1 181502Z 17016KT 29/19 A30 RMK A01 T02910191  RH  055%=      5-min Rain = 0
KTA1 181503Z 17011G16KT 29/19 A30 RMK A01 T02900191  RH  055%=      5-min Rain = 0
KTA1 181504Z 17012KT 29/19 A30 RMK A01 T02910192  RH  055%=      5-min Rain = 0
KTA1 181505Z 18013KT 29/19 A30 RMK A01 T02930191  RH  054%=      5-min Rain = 0
KTA1 181506Z 18013KT 29/19 A30 RMK A01 T02930190  RH  054%=      5-min Rain = 0
KTA1 181507Z 18013KT 29/19 A30 RMK A01 T02930188  RH  053%=      5-min Rain = 0
KTA1 181508Z 19015KT 29/19 A30 RMK A01 T02940187  RH  053%=      5-min Rain = 0
KTA1 181509Z 19015KT 29/19 A30 RMK A01 T02940186  RH  052%=      5-min Rain = 0
KTA1 181510Z 18013KT 29/19 A30 RMK A01 T02930187  RH  053%=      5-min Rain = 0
KTA1 181511Z 19013KT 29/19 A30 RMK A01 T02930188  RH  053%=      5-min Rain = 0
KTA1 181512Z 18013KT 29/19 A30 RMK A01 T02930190  RH  054%=      5-min Rain = 0
KTA1 181513Z 17015KT 29/19 A30 RMK A01 T02940190  RH  054%=      5-min Rain = 0
KTA1 181514Z 17013G18KT 29/19 A30 RMK A01 T02940190  RH  053%=      5-min Rain = 0
KTA1 181515Z 18016KT 29/19 A30 RMK A01 T02940189  RH  053%=      5-min Rain = 0
KTA1 181516Z 17017KT 30/19 A30 RMK A01 T02950188  RH  053%=      5-min Rain = 0
KTA1 181517Z 18017KT 29/19 A30 RMK A01 T02940188  RH  053%=      5-min Rain = 0
KTA1 181518Z 18015G20KT 29/19 A30 RMK A01 T02930187  RH  053%=      5-min Rain = 0
KTA1 181519Z 18016KT 29/19 A30 RMK A01 T02930187  RH  053%=      5-min Rain = 0
KTA1 181520Z 18016KT 29/19 A30 RMK A01 T02930187  RH  053%=      5-min Rain = 0
KTA1 181521Z 18015KT 29/19 A30 RMK A01 T02930187  RH  053%=      5-min Rain = 0
KTA1 181522Z 17013KT 29/19 A30 RMK A01 T02930188  RH  053%=      5-min Rain = 0
KTA1 181523Z 17015KT 29/19 A30 RMK A01 T02940187  RH  053%=      5-min Rain = 0
KTA1 181524Z 17016KT 30/19 A30 RMK A01 T02950187  RH  052%=      5-min Rain = 0
KTA1 181525Z 18016KT 30/19 A30 RMK A01 T02950187  RH  052%=      5-min Rain = 0
KTA1 181526Z 19015KT 30/19 A30 RMK A01 T02950187  RH  052%=      5-min Rain = 0
KTA1 181527Z 19015KT 29/19 A30 RMK A01 T02940188  RH  053%=      5-min Rain = 0
KTA1 181528Z 17012KT 30/19 A30 RMK A01 T02960188  RH  052%=      5-min Rain = 0
KTA1 181529Z 17014KT 30/19 A30 RMK A01 T02980187  RH  052%=      5-min Rain = 0
KTA1 181530Z 18013KT 30/19 A30 RMK A01 T02980188  RH  052%=      5-min Rain = 0
KTA1 181531Z 18014KT 30/19 A30 RMK A01 T02990189  RH  052%=      5-min Rain = 0
KTA1 181532Z 18012KT 30/19 A30 RMK A01 T02990190  RH  052%=      5-min Rain = 0
KTA1 181533Z 17015KT 30/19 A30 RMK A01 T02980189  RH  052%=      5-min Rain = 0
KTA1 181534Z 18016KT 30/19 A30 RMK A01 T02990188  RH  051%=      5-min Rain = 0
KTA1 181535Z 19015KT 30/18 A30 RMK A01 T03000184  RH  050%=      5-min Rain = 0
KTA1 181536Z 18010KT 30/18 A30 RMK A01 T03000183  RH  050%=      5-min Rain = 0
KTA1 181537Z 18011KT 30/18 A30 RMK A01 T03010184  RH  049%=      5-min Rain = 0
KTA1 181538Z 19012KT 30/19 A30 RMK A01 T03020187  RH  050%=      5-min Rain = 0
KTA1 181539Z 19011KT 30/19 A30 RMK A01 T03040186  RH  049%=      5-min Rain = 0
KTA1 181540Z 18012KT 30/19 A30 RMK A01 T03030187  RH  050%=      5-min Rain = 0
KTA1 181541Z 19013G18KT 30/19 A30 RMK A01 T03020188  RH  051%=      5-min Rain = 0
KTA1 181542Z 19013KT 30/19 A30 RMK A01 T03020187  RH  050%=      5-min Rain = 0
KTA1 181543Z 19013KT 30/19 A30 RMK A01 T03020187  RH  050%=      5-min Rain = 0
KTA1 181544Z 19012KT 30/19 A30 RMK A01 T03020187  RH  050%=      5-min Rain = 0
KTA1 181545Z 18014KT 30/19 A30 RMK A01 T03020188  RH  051%=      5-min Rain = 0
KTA1 181546Z 18011KT 30/19 A30 RMK A01 T03020189  RH  051%=      5-min Rain = 0
KTA1 181547Z 18012KT 30/19 A30 RMK A01 T03040189  RH  050%=      5-min Rain = 0
KTA1 181548Z 20015KT 31/19 A30 RMK A01 T03070185  RH  048%=      5-min Rain = 0
KTA1 181549Z 19013G18KT 31/18 A30 RMK A01 T03070184  RH  048%=      5-min Rain = 0
KTA1 181550Z 18011KT 31/18 A30 RMK A01 T03060183  RH  048%=      5-min Rain = 0
KTA1 181551Z 18012KT 31/18 A30 RMK A01 T03060183  RH  048%=      5-min Rain = 0
KTA1 181552Z 19012KT 31/19 A30 RMK A01 T03060186  RH  049%=      5-min Rain = 0
KTA1 181553Z 17010KT 31/19 A30 RMK A01 T03050187  RH  049%=      5-min Rain = 0
KTA1 181554Z 18016KT 31/19 A30 RMK A01 T03070187  RH  049%=      5-min Rain = 0
KTA1 181555Z 18016KT 31/18 A30 RMK A01 T03080184  RH  047%=      5-min Rain = 0
KTA1 181556Z 18014KT 31/18 A30 RMK A01 T03080184  RH  048%=      5-min Rain = 0
KTA1 181557Z 19013KT 31/18 A30 RMK A01 T03070184  RH  048%=      5-min Rain = 0
KTA1 181558Z 18015KT 31/18 A30 RMK A01 T03050184  RH  048%=      5-min Rain = 0
KTA1 181559Z 18015KT 30/18 A30 RMK A01 T03030183  RH  049%=      5-min Rain = 0
KTA1 181600Z 19012KT 30/18 A30 RMK A01 T03030184  RH  049%=      5-min Rain = 0
KTA1 181601Z 18013KT 30/18 A30 RMK A01 T03040183  RH  048%=      5-min Rain = 0
KTA1 181602Z 18013G19KT 31/18 A30 RMK A01 T03060182  RH  048%=      5-min Rain = 0
KTA1 181603Z 17015KT 31/18 A30 RMK A01 T03060184  RH  048%=      5-min Rain = 0
KTA1 181604Z 18013KT 31/18 A30 RMK A01 T03060183  RH  048%=      5-min Rain = 0
KTA1 181605Z 17010KT 31/18 A30 RMK A01 T03060182  RH  047%=      5-min Rain = 0
KTA1 181606Z 19012KT 31/18 A30 RMK A01 T03070184  RH  048%=      5-min Rain = 0
KTA1 181607Z 18012KT 31/19 A30 RMK A01 T03100185  RH  047%=      5-min Rain = 0
KTA1 181608Z 18014KT 31/18 A30 RMK A01 T03110184  RH  047%=      5-min Rain = 0
KTA1 181609Z 19013KT 31/18 A30 RMK A01 T03120183  RH  046%=      5-min Rain = 0
KTA1 181610Z 19012KT 31/18 A30 RMK A01 T03110183  RH  047%=      5-min Rain = 0
KTA1 181611Z 17010KT 31/18 A30 RMK A01 T03090183  RH  047%=      5-min Rain = 0
KTA1 181612Z 18011G17KT 31/18 A30 RMK A01 T03090183  RH  047%=      5-min Rain = 0
KTA1 181613Z 19014KT 31/18 A30 RMK A01 T03090184  RH  047%=      5-min Rain = 0
KTA1 181614Z 19012KT 31/19 A30 RMK A01 T03090185  RH  048%=      5-min Rain = 0
KTA1 181615Z 18012KT 31/19 A30 RMK A01 T03110186  RH  047%=      5-min Rain = 0
KTA1 181616Z 18014KT 31/18 A30 RMK A01 T03110184  RH  047%=      5-min Rain = 0
KTA1 181617Z 18010KT 31/19 A30 RMK A01 T03100185  RH  047%=      5-min Rain = 0
KTA1 181618Z 18012KT 31/18 A30 RMK A01 T03100184  RH  047%=      5-min Rain = 0
KTA1 181619Z 19009KT 31/18 A30 RMK A01 T03100184  RH  047%=      5-min Rain = 0
KTA1 181620Z 18009KT 31/19 A30 RMK A01 T03110186  RH  047%=      5-min Rain = 0
KTA1 181621Z 19015KT 32/19 A30 RMK A01 T03160187  RH  046%=      5-min Rain = 0
KTA1 181622Z 18012KT 32/19 A30 RMK A01 T03160187  RH  046%=      5-min Rain = 0
KTA1 181623Z 18010KT 32/19 A30 RMK A01 T03150187  RH  046%=      5-min Rain = 0
KTA1 181624Z 18010G16KT 32/19 A30 RMK A01 T03150186  RH  046%=      5-min Rain = 0
KTA1 181625Z 20011KT 32/19 A30 RMK A01 T03150186  RH  046%=      5-min Rain = 0
KTA1 181626Z 20011KT 32/19 A30 RMK A01 T03170185  RH  045%=      5-min Rain = 0
KTA1 181627Z 18010KT 32/19 A30 RMK A01 T03200188  RH  045%=      5-min Rain = 0
KTA1 181628Z 19013KT 32/19 A30 RMK A01 T03220187  RH  045%=      5-min Rain = 0
KTA1 181629Z 19012KT 32/19 A30 RMK A01 T03220186  RH  044%=      5-min Rain = 0
KTA1 181630Z 18015KT 32/18 A30 RMK A01 T03200183  RH  044%=      5-min Rain = 0
KTA1 181631Z 17016KT 32/18 A30 RMK A01 T03160182  RH  045%=      5-min Rain = 0
KTA1 181632Z 17012KT 31/18 A30 RMK A01 T03140182  RH  045%=      5-min Rain = 0
KTA1 181633Z 19012KT 32/18 A30 RMK A01 T03160183  RH  045%=      5-min Rain = 0
KTA1 181634Z 18011G19KT 32/18 A30 RMK A01 T03170184  RH  045%=      5-min Rain = 0
KTA1 181635Z 19012KT 32/18 A30 RMK A01 T03190183  RH  045%=      5-min Rain = 0
KTA1 181636Z 19012G17KT 32/18 A30 RMK A01 T03200184  RH  044%=      5-min Rain = 0
KTA1 181637Z 20013KT 32/18 A30 RMK A01 T03210182  RH  044%=      5-min Rain = 0
KTA1 181638Z 19011KT 32/18 A30 RMK A01 T03180184  RH  045%=      5-min Rain = 0
KTA1 181639Z 18013KT 32/18 A30 RMK A01 T03170183  RH  045%=      5-min Rain = 0
KTA1 181640Z 18014KT 32/18 A30 RMK A01 T03170182  RH  045%=      5-min Rain = 0
KTA1 181641Z 19014KT 32/18 A2999 RMK A01 T03170182  RH  045%=      5-min Rain = 0
KTA1 181642Z 17014KT 32/18 A2999 RMK A01 T03190182  RH  044%=      5-min Rain = 0
KTA1 181643Z 17013KT 32/18 A30 RMK A01 T03200181  RH  044%=      5-min Rain = 0
KTA1 181644Z 19016KT 32/18 A2999 RMK A01 T03200183  RH  044%=      5-min Rain = 0
KTA1 181645Z 19013KT 32/18 A30 RMK A01 T03200184  RH  044%=      5-min Rain = 0
KTA1 181646Z 20013KT 32/18 A30 RMK A01 T03210183  RH  044%=      5-min Rain = 0
KTA1 181647Z 20011KT 32/18 A30 RMK A01 T03210183  RH  044%=      5-min Rain = 0
KTA1 181648Z 20012KT 32/18 A2999 RMK A01 T03220184  RH  044%=      5-min Rain = 0
KTA1 181649Z 19012KT 33/19 A2999 RMK A01 T03250185  RH  044%=      5-min Rain = 0
KTA1 181650Z 19011KT 33/18 A2999 RMK A01 T03260183  RH  043%=      5-min Rain = 0
KTA1 181651Z 17012KT 32/18 A2999 RMK A01 T03230183  RH  043%=      5-min Rain = 0
KTA1 181652Z 17013KT 32/18 A2999 RMK A01 T03220183  RH  044%=      5-min Rain = 0
KTA1 181653Z 18011KT 32/18 A2999 RMK A01 T03210183  RH  044%=      5-min Rain = 0
KTA1 181654Z 19015KT 32/18 A2999 RMK A01 T03200181  RH  043%=      5-min Rain = 0
KTA1 181655Z 19013KT 32/18 A2999 RMK A01 T03210181  RH  043%=      5-min Rain = 0
KTA1 181656Z 20010KT 32/18 A2999 RMK A01 T03210182  RH  044%=      5-min Rain = 0
KTA1 181657Z 17011KT 32/18 A2999 RMK A01 T03210181  RH  044%=      5-min Rain = 0
KTA1 181658Z 16011KT 32/18 A2999 RMK A01 T03230180  RH  043%=      5-min Rain = 0
KTA1 181659Z 17008G13KT 32/18 A2999 RMK A01 T03240180  RH  043%=      5-min Rain = 0
KTA1 181700Z 18012KT 33/18 A2999 RMK A01 T03260181  RH  042%=      5-min Rain = 0
KTA1 181701Z 18013KT 33/18 A2999 RMK A01 T03270182  RH  042%=      5-min Rain = 0
KTA1 181702Z 19011KT 33/18 A2999 RMK A01 T03270183  RH  042%=      5-min Rain = 0
KTA1 181703Z 18010KT 33/18 A2999 RMK A01 T03280184  RH  043%=      5-min Rain = 0
KTA1 181704Z 17009G14KT 33/18 A2999 RMK A01 T03300183  RH  042%=      5-min Rain = 0
KTA1 181705Z 18011KT 33/18 A2999 RMK A01 T03310183  RH  042%=      5-min Rain = 0
KTA1 181706Z 17012KT 33/18 A2999 RMK A01 T03310183  RH  041%=      5-min Rain = 0
KTA1 181707Z 18010KT 33/18 A2999 RMK A01 T03300182  RH  042%=      5-min Rain = 0
KTA1 181708Z 20011KT 33/18 A2999 RMK A01 T03310182  RH  041%=      5-min Rain = 0
KTA1 181709Z 20010KT 33/18 A2999 RMK A01 T03320180  RH  041%=      5-min Rain = 0
KTA1 181710Z 19011KT 33/18 A2999 RMK A01 T03300181  RH  041%=      5-min Rain = 0
KTA1 181711Z 19011KT 33/18 A2999 RMK A01 T03300182  RH  042%=      5-min Rain = 0
KTA1 181712Z 18008KT 33/18 A2999 RMK A01 T03280181  RH  042%=      5-min Rain = 0
KTA1 181713Z 19013G18KT 33/18 A2999 RMK A01 T03270182  RH  042%=      5-min Rain = 0
KTA1 181714Z 20012G17KT 33/18 A2999 RMK A01 T03290183  RH  042%=      5-min Rain = 0
KTA1 181715Z 18015KT 33/18 A2999 RMK A01 T03310182  RH  041%=      5-min Rain = 0
KTA1 181716Z 18013KT 33/18 A2999 RMK A01 T03320182  RH  041%=      5-min Rain = 0
KTA1 181717Z 19012KT 33/18 A2999 RMK A01 T03320181  RH  041%=      5-min Rain = 0
KTA1 181718Z 19010KT 33/18 A2999 RMK A01 T03290181  RH  041%=      5-min Rain = 0
KTA1 181719Z 19012G17KT 33/18 A2999 RMK A01 T03290182  RH  042%=      5-min Rain = 0
KTA1 181720Z 20016KT 33/18 A2999 RMK A01 T03300180  RH  041%=      5-min Rain = 0
KTA1 181721Z 20011KT 33/18 A2999 RMK A01 T03300179  RH  041%=      5-min Rain = 0
KTA1 181722Z 18008G16KT 33/18 A2999 RMK A01 T03280180  RH  041%=      5-min Rain = 0
KTA1 181723Z 18015KT 33/18 A2999 RMK A01 T03310180  RH  041%=      5-min Rain = 0
KTA1 181724Z 17012KT 33/18 A2999 RMK A01 T03310179  RH  040%=      5-min Rain = 0
KTA1 181725Z 17012KT 33/18 A2999 RMK A01 T03330180  RH  040%=      5-min Rain = 0
KTA1 181726Z 16013KT 33/18 A2999 RMK A01 T03330179  RH  040%=      5-min Rain = 0
KTA1 181727Z 16010KT 33/18 A2999 RMK A01 T03320180  RH  041%=      5-min Rain = 0
KTA1 181728Z 18011KT 33/18 A2999 RMK A01 T03320179  RH  040%=      5-min Rain = 0
KTA1 181729Z 18010KT 33/18 A2998 RMK A01 T03320179  RH  040%=      5-min Rain = 0
KTA1 181730Z 18014KT 33/18 A2998 RMK A01 T03320179  RH  040%=      5-min Rain = 0
KTA1 181731Z 19012KT 33/18 A2999 RMK A01 T03340176  RH  039%=      5-min Rain = 0
KTA1 181732Z 19012KT 33/18 A2999 RMK A01 T03320176  RH  040%=      5-min Rain = 0
KTA1 181733Z 19010KT 33/18 A2999 RMK A01 T03320177  RH  040%=      5-min Rain = 0
KTA1 181734Z 19010G15KT 33/18 A2999 RMK A01 T03340178  RH  040%=      5-min Rain = 0
KTA1 181735Z 18010KT 34/18 A2999 RMK A01 T03360175  RH  038%=      5-min Rain = 0
KTA1 181736Z 17009KT 33/18 A2999 RMK A01 T03340176  RH  039%=      5-min Rain = 0
KTA1 181737Z 17007KT 34/18 A2998 RMK A01 T03350175  RH  039%=      5-min Rain = 0
KTA1 181738Z 17006KT 34/18 A2998 RMK A01 T03360176  RH  039%=      5-min Rain = 0
KTA1 181739Z 17008KT 34/18 A2998 RMK A01 T03390178  RH  038%=      5-min Rain = 0
KTA1 181740Z 18013KT 34/18 A2998 RMK A01 T03420179  RH  038%=      5-min Rain = 0
KTA1 181741Z 17015KT 34/18 A2998 RMK A01 T03430177  RH  037%=      5-min Rain = 0
KTA1 181742Z 18013KT 34/18 A2998 RMK A01 T03410176  RH  038%=      5-min Rain = 0
KTA1 181743Z 20009G14KT 34/18 A2998 RMK A01 T03400176  RH  038%=      5-min Rain = 0
KTA1 181744Z 18008KT 34/18 A2998 RMK A01 T03400178  RH  038%=      5-min Rain = 0
KTA1 181745Z 18015KT 34/18 A2998 RMK A01 T03420177  RH  038%=      5-min Rain = 0
KTA1 181746Z 18013KT 34/18 A2998 RMK A01 T03400176  RH  038%=      5-min Rain = 0
KTA1 181747Z 19008KT 34/18 A2998 RMK A01 T03380176  RH  038%=      5-min Rain = 0
KTA1 181748Z 19008KT 34/18 A2998 RMK A01 T03370177  RH  038%=      5-min Rain = 0
KTA1 181749Z 17014KT 34/18 A2998 RMK A01 T03390177  RH  038%=      5-min Rain = 0
KTA1 181750Z 17011KT 34/18 A2998 RMK A01 T03400175  RH  038%=      5-min Rain = 0
KTA1 181751Z 17011KT 34/18 A2998 RMK A01 T03390176  RH  038%=      5-min Rain = 0
KTA1 181752Z 18013KT 34/18 A2998 RMK A01 T03390175  RH  038%=      5-min Rain = 0
KTA1 181753Z 17011KT 34/18 A2998 RMK A01 T03410175  RH  037%=      5-min Rain = 0
KTA1 181754Z 18012KT 34/18 A2998 RMK A01 T03430176  RH  037%=      5-min Rain = 0
KTA1 181755Z 20010KT 34/18 A2998 RMK A01 T03420176  RH  037%=      5-min Rain = 0
KTA1 181756Z 18009KT 34/18 A2998 RMK A01 T03410177  RH  038%=      5-min Rain = 0
KTA1 181757Z 16014KT 34/18 A2998 RMK A01 T03420176  RH  037%=      5-min Rain = 0
KTA1 181758Z 17012KT 34/18 A2998 RMK A01 T03420177  RH  038%=      5-min Rain = 0
KTA1 181759Z 18013G19KT 34/18 A2998 RMK A01 T03420176  RH  037%=      5-min Rain = 0
KTA1 181800Z 18015KT 34/18 A2998 RMK A01 T03430175  RH  037%=      5-min Rain = 0
KTA1 181801Z 18012KT 34/18 A2998 RMK A01 T03410175  RH  037%=      5-min Rain = 0
KTA1 181802Z 18012KT 34/18 A2997 RMK A01 T03390175  RH  038%=      5-min Rain = 0
KTA1 181803Z 17010KT 34/17 A2997 RMK A01 T03380174  RH  038%=      5-min Rain = 0
KTA1 181804Z 16010KT 34/17 A2997 RMK A01 T03380174  RH  038%=      5-min Rain = 0
KTA1 181805Z 16011G16KT 34/18 A2997 RMK A01 T03410177  RH  038%=      5-min Rain = 0
KTA1 181806Z 17012KT 34/18 A2997 RMK A01 T03440177  RH  037%=      5-min Rain = 0
KTA1 181807Z 18015G20KT 35/18 A2997 RMK A01 T03450176  RH  037%=      5-min Rain = 0
KTA1 181808Z 18016KT 35/17 A2997 RMK A01 T03450171  RH  036%=      5-min Rain = 0
KTA1 181809Z 18009KT 34/17 A2997 RMK A01 T03440171  RH  036%=      5-min Rain = 0
KTA1 181810Z 18008KT 35/17 A2997 RMK A01 T03460173  RH  036%=      5-min Rain = 0
KTA1 181811Z 18010KT 35/17 A2997 RMK A01 T03470174  RH  036%=      5-min Rain = 0
KTA1 181812Z 20010KT 35/18 A2997 RMK A01 T03470175  RH  036%=      5-min Rain = 0
KTA1 181813Z 19009KT 35/18 A2997 RMK A01 T03480176  RH  036%=      5-min Rain = 0
KTA1 181814Z 20013KT 35/18 A2997 RMK A01 T03510176  RH  035%=      5-min Rain = 0
KTA1 181815Z 20012KT 35/17 A2997 RMK A01 T03500174  RH  035%=      5-min Rain = 0
KTA1 181816Z 20013KT 35/17 A2997 RMK A01 T03470173  RH  036%=      5-min Rain = 0
KTA1 181817Z 20009KT 35/17 A2997 RMK A01 T03450174  RH  036%=      5-min Rain = 0
KTA1 181818Z 17009KT 35/18 A2997 RMK A01 T03480177  RH  036%=      5-min Rain = 0
KTA1 181819Z 16010KT 35/18 A2997 RMK A01 T03520178  RH  036%=      5-min Rain = 0
KTA1 181820Z 16013KT 35/18 A2997 RMK A01 T03500179  RH  036%=      5-min Rain = 0
KTA1 181821Z 17013KT 35/18 A2997 RMK A01 T03490179  RH  036%=      5-min Rain = 0
KTA1 181822Z 18014G22KT 35/18 A2997 RMK A01 T03500177  RH  036%=      5-min Rain = 0
KTA1 181823Z 17017KT 35/18 A2997 RMK A01 T03490177  RH  036%=      5-min Rain = 0
KTA1 181824Z 16014KT 35/18 A2997 RMK A01 T03480178  RH  037%=      5-min Rain = 0
KTA1 181825Z 14010KT 35/18 A2997 RMK A01 T03470178  RH  037%=      5-min Rain = 0
KTA1 181826Z 16011G16KT 35/18 A2997 RMK A01 T03450178  RH  037%=      5-min Rain = 0
KTA1 181827Z 19012KT 35/18 A2997 RMK A01 T03450179  RH  037%=      5-min Rain = 0
KTA1 181828Z 18013G18KT 35/18 A2997 RMK A01 T03470178  RH  037%=      5-min Rain = 0
KTA1 181829Z 19010KT 35/18 A2997 RMK A01 T03470176  RH  036%=      5-min Rain = 0
KTA1 181830Z 19013KT 35/18 A2997 RMK A01 T03480177  RH  036%=      5-min Rain = 0
KTA1 181831Z 18012KT 35/18 A2996 RMK A01 T03480176  RH  036%=      5-min Rain = 0
KTA1 181832Z 18013KT 35/18 A2997 RMK A01 T03470176  RH  036%=      5-min Rain = 0
KTA1 181833Z 17011KT 35/17 A2996 RMK A01 T03460174  RH  036%=      5-min Rain = 0
KTA1 181834Z 17012KT 35/18 A2996 RMK A01 T03450175  RH  036%=      5-min Rain = 0
KTA1 181835Z 16013KT 35/18 A2996 RMK A01 T03470176  RH  036%=      5-min Rain = 0
KTA1 181836Z 15010KT 35/18 A2996 RMK A01 T03480176  RH  036%=      5-min Rain = 0
KTA1 181837Z 15013G21KT 35/18 A2996 RMK A01 T03500178  RH  036%=      5-min Rain = 0
KTA1 181838Z 17013KT 35/18 A2996 RMK A01 T03520175  RH  035%=      5-min Rain = 0
KTA1 181839Z 17012KT 36/17 A2996 RMK A01 T03550174  RH  034%=      5-min Rain = 0
KTA1 181840Z 19012KT 36/17 A2996 RMK A01 T03560174  RH  034%=      5-min Rain = 0
KTA1 181841Z 19012KT 35/17 A2996 RMK A01 T03540174  RH  034%=      5-min Rain = 0
KTA1 181842Z 17016KT 35/18 A2996 RMK A01 T03530177  RH  035%=      5-min Rain = 0
KTA1 181843Z 17014KT 35/18 A2996 RMK A01 T03520177  RH  036%=      5-min Rain = 0
KTA1 181844Z 17013G18KT 35/18 A2996 RMK A01 T03510176  RH  035%=      5-min Rain = 0
KTA1 181845Z 18014KT 35/18 A2996 RMK A01 T03520176  RH  035%=      5-min Rain = 0
KTA1 181846Z 18011G16KT 35/18 A2996 RMK A01 T03540175  RH  035%=      5-min Rain = 0
KTA1 181847Z 16011KT 35/18 A2996 RMK A01 T03510176  RH  035%=      5-min Rain = 0
KTA1 181848Z 17009G16KT 35/17 A2996 RMK A01 T03510174  RH  035%=      5-min Rain = 0
KTA1 181849Z 17016KT 35/17 A2996 RMK A01 T03520173  RH  035%=      5-min Rain = 0
KTA1 181850Z 19015KT 35/17 A2996 RMK A01 T03530171  RH  034%=      5-min Rain = 0
KTA1 181851Z 20014KT 35/17 A2996 RMK A01 T03530172  RH  034%=      5-min Rain = 0
KTA1 181852Z 19009G14KT 35/17 A2996 RMK A01 T03500172  RH  035%=      5-min Rain = 0
KTA1 181853Z 16014G19KT 35/18 A2996 RMK A01 T03540175  RH  035%=      5-min Rain = 0
KTA1 181854Z 16014KT 36/18 A2996 RMK A01 T03560176  RH  034%=      5-min Rain = 0
KTA1 181855Z 17011KT 36/17 A2996 RMK A01 T03550174  RH  034%=      5-min Rain = 0
KTA1 181856Z 16011KT 35/17 A2996 RMK A01 T03510174  RH  035%=      5-min Rain = 0
KTA1 181857Z 16013G18KT 35/17 A2996 RMK A01 T03510174  RH  035%=      5-min Rain = 0
KTA1 181858Z 17013KT 35/17 A2996 RMK A01 T03520174  RH  035%=      5-min Rain = 0
KTA1 181859Z 18016KT 35/17 A2996 RMK A01 T03530171  RH  034%=      5-min Rain = 0
KTA1 181900Z 18015KT 35/17 A2996 RMK A01 T03530172  RH  034%=      5-min Rain = 0
KTA1 181901Z 18013KT 36/17 A2996 RMK A01 T03560171  RH  033%=      5-min Rain = 0
KTA1 181902Z 18013KT 36/17 A2996 RMK A01 T03560168  RH  033%=      5-min Rain = 0
KTA1 181903Z 18013KT 36/17 A2996 RMK A01 T03560169  RH  033%=      5-min Rain = 0
KTA1 181904Z 19013KT 35/17 A2996 RMK A01 T03540172  RH  034%=      5-min Rain = 0
KTA1 181905Z 19010KT 35/17 A2996 RMK A01 T03540171  RH  034%=      5-min Rain = 0
KTA1 181906Z 19011G16KT 35/17 A2996 RMK A01 T03540172  RH  034%=      5-min Rain = 0
KTA1 181907Z 18012KT 36/17 A2996 RMK A01 T03570171  RH  033%=      5-min Rain = 0
KTA1 181908Z 17009KT 36/17 A2995 RMK A01 T03580170  RH  033%=      5-min Rain = 0
KTA1 181909Z 15013KT 36/18 A2996 RMK A01 T03570175  RH  034%=      5-min Rain = 0
KTA1 181910Z 16010KT 36/18 A2995 RMK A01 T03580177  RH  034%=      5-min Rain = 0
KTA1 181911Z 18013KT 36/17 A2995 RMK A01 T03580174  RH  034%=      5-min Rain = 0
KTA1 181912Z 20013KT 36/17 A2995 RMK A01 T03580171  RH  033%=      5-min Rain = 0
KTA1 181913Z 19011KT 36/17 A2995 RMK A01 T03560170  RH  033%=      5-min Rain = 0
KTA1 181914Z 19015KT 36/17 A2995 RMK A01 T03580171  RH  033%=      5-min Rain = 0
KTA1 181915Z 19016KT 36/17 A2995 RMK A01 T03590169  RH  033%=      5-min Rain = 0
KTA1 181916Z 20014KT 36/17 A2995 RMK A01 T03560168  RH  033%=      5-min Rain = 0
KTA1 181917Z 19012KT 35/17 A2995 RMK A01 T03540169  RH  033%=      5-min Rain = 0
KTA1 181918Z 17011KT 36/17 A2995 RMK A01 T03570171  RH  033%=      5-min Rain = 0
KTA1 181919Z 17005KT 36/17 A2995 RMK A01 T03600172  RH  033%=      5-min Rain = 0
KTA1 181920Z 18008G15KT 36/17 A2995 RMK A01 T03610172  RH  033%=      5-min Rain = 0
KTA1 181921Z 17013KT 36/17 A2995 RMK A01 T03600171  RH  033%=      5-min Rain = 0
KTA1 181922Z 16013KT 36/17 A2995 RMK A01 T03600172  RH  033%=      5-min Rain = 0
KTA1 181923Z 16011KT 36/17 A2995 RMK A01 T03600172  RH  033%=      5-min Rain = 0
KTA1 181924Z 18012KT 36/17 A2995 RMK A01 T03590172  RH  033%=      5-min Rain = 0
KTA1 181925Z 16012KT 36/17 A2995 RMK A01 T03590172  RH  033%=      5-min Rain = 0
KTA1 181926Z 16014KT 36/17 A2995 RMK A01 T03600172  RH  033%=      5-min Rain = 0
KTA1 181927Z 16010KT 36/17 A2995 RMK A01 T03590170  RH  033%=      5-min Rain = 0
KTA1 181928Z 18011KT 36/17 A2995 RMK A01 T03590173  RH  033%=      5-min Rain = 0
KTA1 181929Z 19012KT 36/17 A2995 RMK A01 T03640173  RH  033%=      5-min Rain = 0
KTA1 181930Z 18010G17KT 36/17 A2995 RMK A01 T03630173  RH  033%=      5-min Rain = 0
KTA1 181931Z 17017G22KT 36/17 A2995 RMK A01 T03630172  RH  032%=      5-min Rain = 0
KTA1 181932Z 16012G17KT 36/17 A2995 RMK A01 T03630172  RH  032%=      5-min Rain = 0
KTA1 181933Z 16014KT 36/17 A2995 RMK A01 T03630172  RH  032%=      5-min Rain = 0
KTA1 181934Z 17011KT 36/17 A2995 RMK A01 T03620170  RH  032%=      5-min Rain = 0
KTA1 181935Z 18011KT 36/17 A2995 RMK A01 T03620171  RH  032%=      5-min Rain = 0
KTA1 181936Z 19011KT 36/17 A2995 RMK A01 T03620170  RH  032%=      5-min Rain = 0
KTA1 181937Z 17010G15KT 36/17 A2995 RMK A01 T03620171  RH  032%=      5-min Rain = 0
KTA1 181938Z 16011KT 36/17 A2995 RMK A01 T03630167  RH  032%=      5-min Rain = 0
KTA1 181939Z 18009KT 36/17 A2995 RMK A01 T03630168  RH  032%=      5-min Rain = 0
KTA1 181940Z 19011KT 36/17 A2995 RMK A01 T03600167  RH  032%=      5-min Rain = 0
KTA1 181941Z 19010KT 36/17 A2995 RMK A01 T03590169  RH  033%=      5-min Rain = 0
KTA1 181942Z 16013G18KT 36/17 A2995 RMK A01 T03630171  RH  032%=      5-min Rain = 0
KTA1 181943Z 16014KT 37/17 A2995 RMK A01 T03660171  RH  032%=      5-min Rain = 0
KTA1 181944Z 16015KT 36/17 A2995 RMK A01 T03630170  RH  032%=      5-min Rain = 0
KTA1 181945Z 17014KT 36/17 A2995 RMK A01 T03630171  RH  032%=      5-min Rain = 0
KTA1 181946Z 16010G15KT 36/17 A2995 RMK A01 T03620170  RH  032%=      5-min Rain = 0
KTA1 181947Z 17012KT 36/17 A2995 RMK A01 T03630171  RH  032%=      5-min Rain = 0
KTA1 181948Z 17012KT 36/17 A2994 RMK A01 T03610170  RH  032%=      5-min Rain = 0
KTA1 181949Z 16014KT 36/17 A2994 RMK A01 T03610168  RH  032%=      5-min Rain = 0
KTA1 181950Z 17012KT 36/17 A2994 RMK A01 T03620167  RH  032%=      5-min Rain = 0
KTA1 181951Z 17012G17KT 36/17 A2994 RMK A01 T03640168  RH  032%=      5-min Rain = 0
KTA1 181952Z 16014KT 37/17 A2994 RMK A01 T03650169  RH  031%=      5-min Rain = 0
KTA1 181953Z 16010KT 36/17 A2994 RMK A01 T03640169  RH  032%=      5-min Rain = 0
KTA1 181954Z 16010KT 36/17 A2994 RMK A01 T03640169  RH  032%=      5-min Rain = 0
KTA1 181955Z 16011G16KT 36/17 A2994 RMK A01 T03640171  RH  032%=      5-min Rain = 0
KTA1 181956Z 17015KT 37/17 A2994 RMK A01 T03650172  RH  032%=      5-min Rain = 0
KTA1 181957Z 15015KT 37/17 A2994 RMK A01 T03650171  RH  032%=      5-min Rain = 0
KTA1 181958Z 15016KT 37/17 A2994 RMK A01 T03650169  RH  032%=      5-min Rain = 0
KTA1 181959Z 15010KT 37/17 A2994 RMK A01 T03650171  RH  032%=      5-min Rain = 0
KTA1 182000Z 16011KT 36/17 A2994 RMK A01 T03640171  RH  032%=      5-min Rain = 0
KTA1 182001Z 18014G19KT 36/17 A2994 RMK A01 T03640171  RH  032%=      5-min Rain = 0
KTA1 182002Z 18014KT 36/17 A2994 RMK A01 T03640169  RH  032%=      5-min Rain = 0
KTA1 182003Z 17015KT 37/17 A2994 RMK A01 T03650168  RH  031%=      5-min Rain = 0
KTA1 182004Z 16011KT 36/17 A2994 RMK A01 T03640167  RH  031%=      5-min Rain = 0
KTA1 182005Z 16010KT 36/17 A2994 RMK A01 T03620167  RH  032%=      5-min Rain = 0
KTA1 182006Z 17014KT 36/17 A2994 RMK A01 T03620168  RH  032%=      5-min Rain = 0
KTA1 182007Z 17013KT 36/17 A2994 RMK A01 T03620169  RH  032%=      5-min Rain = 0
KTA1 182008Z 15013KT 36/17 A2994 RMK A01 T03640170  RH  032%=      5-min Rain = 0
KTA1 182009Z 17012KT 36/17 A2994 RMK A01 T03640170  RH  032%=      5-min Rain = 0
KTA1 182010Z 17015G20KT 37/17 A2994 RMK A01 T03660170  RH  032%=      5-min Rain = 0
KTA1 182011Z 17014KT 37/17 A2994 RMK A01 T03680168  RH  031%=      5-min Rain = 0
KTA1 182012Z 17013KT 37/17 A2994 RMK A01 T03680168  RH  031%=      5-min Rain = 0
KTA1 182013Z 17013KT 37/17 A2994 RMK A01 T03690165  RH  030%=      5-min Rain = 0
KTA1 182014Z 17007KT 37/16 A2994 RMK A01 T03670163  RH  030%=      5-min Rain = 0
KTA1 182015Z 17008KT 37/17 A2994 RMK A01 T03660166  RH  031%=      5-min Rain = 0
KTA1 182016Z 18014KT 37/17 A2994 RMK A01 T03680168  RH  031%=      5-min Rain = 0
KTA1 182017Z 18013KT 37/17 A2993 RMK A01 T03680170  RH  031%=      5-min Rain = 0
KTA1 182018Z 18011KT 37/17 A2993 RMK A01 T03660168  RH  031%=      5-min Rain = 0
KTA1 182019Z 17011KT 37/17 A2993 RMK A01 T03650169  RH  032%=      5-min Rain = 0
KTA1 182020Z 17011KT 37/17 A2993 RMK A01 T03660171  RH  032%=      5-min Rain = 0
KTA1 182021Z 19013KT 37/17 A2993 RMK A01 T03690169  RH  031%=      5-min Rain = 0
KTA1 182022Z 20015KT 37/16 A2993 RMK A01 T03700164  RH  030%=      5-min Rain = 0
KTA1 182023Z 18014KT 37/16 A2993 RMK A01 T03690163  RH  030%=      5-min Rain = 0
KTA1 182024Z 18012KT 37/16 A2993 RMK A01 T03690162  RH  029%=      5-min Rain = 0
KTA1 182025Z 18013KT 37/16 A2993 RMK A01 T03700164  RH  030%=      5-min Rain = 0
KTA1 182026Z 20012KT 37/16 A2993 RMK A01 T03700163  RH  030%=      5-min Rain = 0
KTA1 182027Z 21011KT 37/16 A2993 RMK A01 T03690161  RH  029%=      5-min Rain = 0
KTA1 182028Z 19016KT 37/16 A2993 RMK A01 T03680162  RH  030%=      5-min Rain = 0
KTA1 182029Z 18011KT 37/16 A2993 RMK A01 T03700160  RH  029%=      5-min Rain = 0
KTA1 182030Z 18014KT 37/16 A2993 RMK A01 T03720163  RH  029%=      5-min Rain = 0
KTA1 182031Z 17014KT 37/17 A2993 RMK A01 T03710165  RH  030%=      5-min Rain = 0
KTA1 182032Z 16015KT 37/16 A2993 RMK A01 T03730163  RH  029%=      5-min Rain = 0
KTA1 182033Z 16012G17KT 37/16 A2993 RMK A01 T03720163  RH  029%=      5-min Rain = 0
KTA1 182034Z 16011KT 37/17 A2993 RMK A01 T03680165  RH  030%=      5-min Rain = 0
KTA1 182035Z 17012KT 37/17 A2993 RMK A01 T03680168  RH  031%=      5-min Rain = 0
KTA1 182036Z 18011KT 37/17 A2993 RMK A01 T03690169  RH  031%=      5-min Rain = 0
KTA1 182037Z 19013KT 37/17 A2993 RMK A01 T03730167  RH  030%=      5-min Rain = 0
KTA1 182038Z 21013KT 37/16 A2993 RMK A01 T03730162  RH  029%=      5-min Rain = 0
KTA1 182039Z 20012KT 37/16 A2993 RMK A01 T03700161  RH  029%=      5-min Rain = 0
KTA1 182040Z 19014KT 37/16 A2993 RMK A01 T03700159  RH  029%=      5-min Rain = 0
KTA1 182041Z 18013KT 37/16 A2993 RMK A01 T03720156  RH  028%=      5-min Rain = 0
KTA1 182042Z 17013KT 37/15 A2993 RMK A01 T03730154  RH  027%=      5-min Rain = 0
KTA1 182043Z 18015G20KT 37/16 A2992 RMK A01 T03730159  RH  028%=      5-min Rain = 0
KTA1 182044Z 18014KT 38/16 A2993 RMK A01 T03750161  RH  028%=      5-min Rain = 0
KTA1 182045Z 17015KT 38/16 A2993 RMK A01 T03770158  RH  027%=      5-min Rain = 0
KTA1 182046Z 18010KT 37/16 A2993 RMK A01 T03740157  RH  028%=      5-min Rain = 0
KTA1 182047Z 19010KT 37/16 A2992 RMK A01 T03730159  RH  028%=      5-min Rain = 0
KTA1 182048Z 18011KT 37/16 A2992 RMK A01 T03730159  RH  028%=      5-min Rain = 0
KTA1 182049Z 17011KT 37/16 A2992 RMK A01 T03730161  RH  029%=      5-min Rain = 0
KTA1 182050Z 15010KT 38/16 A2992 RMK A01 T03760164  RH  029%=      5-min Rain = 0
KTA1 182051Z 17011G16KT 38/17 A2992 RMK A01 T03760166  RH  029%=      5-min Rain = 0
KTA1 182052Z 19016KT 38/16 A2992 RMK A01 T03780162  RH  028%=      5-min Rain = 0
KTA1 182053Z 19015KT 38/16 A2992 RMK A01 T03780159  RH  028%=      5-min Rain = 0
KTA1 182054Z 18014KT 38/16 A2993 RMK A01 T03760157  RH  028%=      5-min Rain = 0
KTA1 182055Z 18008KT 38/16 A2993 RMK A01 T03760157  RH  028%=      5-min Rain = 0
KTA1 182056Z 18010KT 38/16 A2992 RMK A01 T03780158  RH  027%=      5-min Rain = 0
KTA1 182057Z 17009KT 38/16 A2992 RMK A01 T03750160  RH  028%=      5-min Rain = 0
KTA1 182058Z 17012G18KT 37/16 A2992 RMK A01 T03740162  RH  029%=      5-min Rain = 0
KTA1 182059Z 18016G23KT 38/16 A2992 RMK A01 T03750156  RH  028%=      5-min Rain = 0
KTA1 182100Z 19017KT 37/15 A2992 RMK A01 T03740154  RH  027%=      5-min Rain = 0
KTA1 182101Z 18014G19KT 38/15 A2992 RMK A01 T03750150  RH  026%=      5-min Rain = 0
KTA1 182102Z 17014G19KT 37/15 A2992 RMK A01 T03730150  RH  027%=      5-min Rain = 0
KTA1 182103Z 17015KT 37/15 A2992 RMK A01 T03720149  RH  027%=      5-min Rain = 0
KTA1 182104Z 16013KT 37/15 A2992 RMK A01 T03740150  RH  027%=      5-min Rain = 0
KTA1 182105Z 16010KT 37/15 A2992 RMK A01 T03730153  RH  027%=      5-min Rain = 0
KTA1 182106Z 17009KT 37/15 A2992 RMK A01 T03730151  RH  027%=      5-min Rain = 0
KTA1 182107Z 16008KT 37/15 A2992 RMK A01 T03720153  RH  027%=      5-min Rain = 0
KTA1 182108Z 15012KT 37/16 A2992 RMK A01 T03740155  RH  027%=      5-min Rain = 0
KTA1 182109Z 18009G14KT 38/16 A2992 RMK A01 T03750155  RH  027%=      5-min Rain = 0
KTA1 182110Z 18014KT 37/15 A2992 RMK A01 T03730153  RH  027%=      5-min Rain = 0
KTA1 182111Z 16015KT 37/16 A2992 RMK A01 T03740155  RH  028%=      5-min Rain = 0
KTA1 182112Z 16012KT 38/16 A2992 RMK A01 T03750158  RH  028%=      5-min Rain = 0
KTA1 182113Z 16011KT 38/16 A2992 RMK A01 T03750160  RH  028%=      5-min Rain = 0
KTA1 182114Z 17013G18KT 38/16 A2992 RMK A01 T03760161  RH  028%=      5-min Rain = 0
KTA1 182115Z 17012G17KT 38/16 A2992 RMK A01 T03780158  RH  027%=      5-min Rain = 0
KTA1 182116Z 17011KT 38/16 A2992 RMK A01 T03780159  RH  027%=      5-min Rain = 0
KTA1 182117Z 18010KT 38/16 A2992 RMK A01 T03770159  RH  028%=      5-min Rain = 0
KTA1 182118Z 19007KT 38/16 A2992 RMK A01 T03760160  RH  028%=      5-min Rain = 0
KTA1 182119Z 16007KT 38/16 A2992 RMK A01 T03770162  RH  028%=      5-min Rain = 0
KTA1 182120Z 16015KT 38/16 A2991 RMK A01 T03800159  RH  027%=      5-min Rain = 0
KTA1 182121Z 16014KT 38/16 A2992 RMK A01 T03810155  RH  026%=      5-min Rain = 0
KTA1 182122Z 16011KT 38/15 A2992 RMK A01 T03770154  RH  027%=      5-min Rain = 0
KTA1 182123Z 17009G14KT 38/16 A2992 RMK A01 T03750155  RH  027%=      5-min Rain = 0
KTA1 182124Z 18014KT 38/15 A2992 RMK A01 T03770152  RH  026%=      5-min Rain = 0
KTA1 182125Z 19015KT 38/15 A2992 RMK A01 T03790149  RH  026%=      5-min Rain = 0
KTA1 182126Z 18013KT 38/15 A2992 RMK A01 T03760147  RH  026%=      5-min Rain = 0
KTA1 182127Z 17013KT 38/14 A2992 RMK A01 T03760144  RH  025%=      5-min Rain = 0
KTA1 182128Z 18013KT 38/14 A2991 RMK A01 T03770142  RH  025%=      5-min Rain = 0
KTA1 182129Z 18010G16KT 38/14 A2991 RMK A01 T03750141  RH  025%=      5-min Rain = 0
KTA1 182130Z 17012KT 38/14 A2991 RMK A01 T03760144  RH  025%=      5-min Rain = 0
KTA1 182131Z 19013KT 38/15 A2991 RMK A01 T03790147  RH  025%=      5-min Rain = 0
KTA1 182132Z 17013KT 38/15 A2991 RMK A01 T03790151  RH  026%=      5-min Rain = 0
KTA1 182133Z 17008KT 38/15 A2991 RMK A01 T03750151  RH  026%=      5-min Rain = 0
KTA1 182134Z 16010KT 38/15 A2991 RMK A01 T03750152  RH  027%=      5-min Rain = 0
KTA1 182135Z 17012G18KT 38/16 A2991 RMK A01 T03760156  RH  027%=      5-min Rain = 0
KTA1 182136Z 17015G22KT 38/15 A2991 RMK A01 T03770153  RH  027%=      5-min Rain = 0
KTA1 182137Z 17011G16KT 38/15 A2991 RMK A01 T03750150  RH  027%=      5-min Rain = 0
KTA1 182138Z 15012KT 37/15 A2991 RMK A01 T03730153  RH  027%=      5-min Rain = 0
KTA1 182139Z 16013KT 38/16 A2991 RMK A01 T03750156  RH  027%=      5-min Rain = 0
KTA1 182140Z 16013G18KT 38/16 A2991 RMK A01 T03750157  RH  028%=      5-min Rain = 0
KTA1 182141Z 18016KT 38/16 A2991 RMK A01 T03770158  RH  027%=      5-min Rain = 0
KTA1 182142Z 17017KT 38/16 A2991 RMK A01 T03770159  RH  028%=      5-min Rain = 0
KTA1 182143Z 16015KT 38/16 A2991 RMK A01 T03770161  RH  028%=      5-min Rain = 0
KTA1 182144Z 14014KT 38/16 A2991 RMK A01 T03760162  RH  028%=      5-min Rain = 0
KTA1 182145Z 15013KT 38/16 A2991 RMK A01 T03750161  RH  028%=      5-min Rain = 0
KTA1 182146Z 15010KT 38/16 A2991 RMK A01 T03750161  RH  028%=      5-min Rain = 0
KTA1 182147Z 16013KT 38/16 A299 RMK A01 T03750161  RH  028%=      5-min Rain = 0
KTA1 182148Z 18012KT 38/16 A2991 RMK A01 T03760160  RH  028%=      5-min Rain = 0
KTA1 182149Z 19013KT 38/15 A2991 RMK A01 T03790151  RH  026%=      5-min Rain = 0
KTA1 182150Z 19014KT 38/15 A299 RMK A01 T03800153  RH  026%=      5-min Rain = 0
KTA1 182151Z 19016KT 38/15 A299 RMK A01 T03790150  RH  026%=      5-min Rain = 0
KTA1 182152Z 20016KT 38/15 A299 RMK A01 T03780147  RH  025%=      5-min Rain = 0
KTA1 182153Z 20014KT 38/15 A299 RMK A01 T03780145  RH  025%=      5-min Rain = 0
KTA1 182154Z 21013KT 38/15 A299 RMK A01 T03770146  RH  025%=      5-min Rain = 0
KTA1 182155Z 20013KT 38/15 A299 RMK A01 T03760150  RH  026%=      5-min Rain = 0
KTA1 182156Z 18017G22KT 38/15 A299 RMK A01 T03770154  RH  027%=      5-min Rain = 0
KTA1 182157Z 18019KT 38/15 A299 RMK A01 T03770152  RH  026%=      5-min Rain = 0
KTA1 182158Z 18013KT 38/15 A299 RMK A01 T03750151  RH  027%=      5-min Rain = 0
KTA1 182159Z 17014KT 38/15 A299 RMK A01 T03750154  RH  027%=      5-min Rain = 0
KTA1 182200Z 17011KT 38/15 A299 RMK A01 T03760152  RH  027%=      5-min Rain = 0
KTA1 182201Z 19012G17KT 38/15 A299 RMK A01 T03780152  RH  026%=      5-min Rain = 0
KTA1 182202Z 18010KT 38/15 A299 RMK A01 T03780150  RH  026%=      5-min Rain = 0
KTA1 182203Z 18016KT 38/16 A299 RMK A01 T03770155  RH  027%=      5-min Rain = 0
KTA1 182204Z 17013KT 38/16 A299 RMK A01 T03770157  RH  027%=      5-min Rain = 0
KTA1 182205Z 16011KT 38/16 A299 RMK A01 T03780157  RH  027%=      5-min Rain = 0
KTA1 182206Z 15011KT 38/16 A299 RMK A01 T03780159  RH  028%=      5-min Rain = 0
KTA1 182207Z 15015G23KT 38/16 A299 RMK A01 T03780159  RH  028%=      5-min Rain = 0
KTA1 182208Z 15016KT 38/16 A299 RMK A01 T03760159  RH  028%=      5-min Rain = 0
KTA1 182209Z 16016KT 38/16 A299 RMK A01 T03750160  RH  028%=      5-min Rain = 0
KTA1 182210Z 16016KT 37/16 A299 RMK A01 T03740160  RH  028%=      5-min Rain = 0
KTA1 182211Z 16012KT 37/16 A299 RMK A01 T03710159  RH  029%=      5-min Rain = 0
KTA1 182212Z 15016KT 37/16 A299 RMK A01 T03720161  RH  029%=      5-min Rain = 0
KTA1 182213Z 15014KT 37/16 A299 RMK A01 T03730159  RH  028%=      5-min Rain = 0
KTA1 182214Z 15018G23KT 37/16 A2989 RMK A01 T03740159  RH  028%=      5-min Rain = 0
KTA1 182215Z 15015KT 37/16 A2989 RMK A01 T03740158  RH  028%=      5-min Rain = 0
KTA1 182216Z 16016G21KT 37/16 A2989 RMK A01 T03740157  RH  028%=      5-min Rain = 0
KTA1 182217Z 15018KT 37/15 A2989 RMK A01 T03740154  RH  027%=      5-min Rain = 0
KTA1 182218Z 16013KT 37/15 A2989 RMK A01 T03740152  RH  027%=      5-min Rain = 0
KTA1 182219Z 18011KT 38/15 A2989 RMK A01 T03770154  RH  027%=      5-min Rain = 0
KTA1 182220Z 19016KT 38/15 A2989 RMK A01 T03800147  RH  025%=      5-min Rain = 0
KTA1 182221Z 18010G16KT 38/15 A2989 RMK A01 T03770145  RH  025%=      5-min Rain = 0
KTA1 182222Z 17010KT 38/15 A2989 RMK A01 T03790147  RH  025%=      5-min Rain = 0
KTA1 182223Z 17013KT 38/14 A2989 RMK A01 T03820143  RH  024%=      5-min Rain = 0
KTA1 182224Z 19012KT 38/14 A2989 RMK A01 T03820143  RH  024%=      5-min Rain = 0
KTA1 182225Z 19014KT 38/14 A2989 RMK A01 T03830144  RH  024%=      5-min Rain = 0
KTA1 182226Z 20011G16KT 38/14 A2989 RMK A01 T03830138  RH  023%=      5-min Rain = 0
KTA1 182227Z 21012KT 38/14 A2989 RMK A01 T03810143  RH  024%=      5-min Rain = 0
KTA1 182228Z 20009G14KT 38/15 A2989 RMK A01 T03790145  RH  025%=      5-min Rain = 0
KTA1 182229Z 17012KT 38/15 A2989 RMK A01 T03790146  RH  025%=      5-min Rain = 0
KTA1 182230Z 16014KT 38/15 A2989 RMK A01 T03810152  RH  026%=      5-min Rain = 0
KTA1 182231Z 17011KT 38/16 A2989 RMK A01 T03800158  RH  027%=      5-min Rain = 0
KTA1 182232Z 16012G17KT 38/16 A2989 RMK A01 T03790159  RH  027%=      5-min Rain = 0
KTA1 182233Z 15017KT 38/16 A2989 RMK A01 T03800158  RH  027%=      5-min Rain = 0
KTA1 182234Z 16017G22KT 38/16 A2989 RMK A01 T03790157  RH  027%=      5-min Rain = 0
KTA1 182235Z 17014KT 38/16 A2989 RMK A01 T03780155  RH  027%=      5-min Rain = 0
KTA1 182236Z 17011KT 38/15 A2989 RMK A01 T03770152  RH  027%=      5-min Rain = 0
KTA1 182237Z 15013G18KT 38/16 A2989 RMK A01 T03770155  RH  027%=      5-min Rain = 0
KTA1 182238Z 17016KT 38/15 A2988 RMK A01 T03770153  RH  027%=      5-min Rain = 0
KTA1 182239Z 18014KT 38/15 A2988 RMK A01 T03750152  RH  027%=      5-min Rain = 0
KTA1 182240Z 18014KT 38/15 A2988 RMK A01 T03780152  RH  026%=      5-min Rain = 0
KTA1 182241Z 18013KT 38/15 A2989 RMK A01 T03790150  RH  026%=      5-min Rain = 0
KTA1 182242Z 17015KT 38/15 A2989 RMK A01 T03770153  RH  027%=      5-min Rain = 0
KTA1 182243Z 16014G19KT 38/16 A2989 RMK A01 T03760155  RH  027%=      5-min Rain = 0
KTA1 182244Z 16011G17KT 38/16 A2988 RMK A01 T03750156  RH  027%=      5-min Rain = 0
KTA1 182245Z 16013KT 38/16 A2988 RMK A01 T03770156  RH  027%=      5-min Rain = 0
KTA1 182246Z 16012KT 38/16 A2988 RMK A01 T03770156  RH  027%=      5-min Rain = 0
KTA1 182247Z 16008KT 38/15 A2988 RMK A01 T03760154  RH  027%=      5-min Rain = 0
KTA1 182248Z 20011G17KT 38/15 A2988 RMK A01 T03750154  RH  027%=      5-min Rain = 0
KTA1 182249Z 19015KT 38/15 A2988 RMK A01 T03760151  RH  026%=      5-min Rain = 0
KTA1 182250Z 19014KT 38/15 A2988 RMK A01 T03770147  RH  026%=      5-min Rain = 0
KTA1 182251Z 19014KT 38/15 A2988 RMK A01 T03760147  RH  026%=      5-min Rain = 0
KTA1 182252Z 19013KT 38/15 A2988 RMK A01 T03760145  RH  026%=      5-min Rain = 0
KTA1 182253Z 19014KT 38/15 A2988 RMK A01 T03750145  RH  026%=      5-min Rain = 0
KTA1 182254Z 19014KT 37/15 A2988 RMK A01 T03730145  RH  026%=      5-min Rain = 0
KTA1 182255Z 19012KT 37/15 A2988 RMK A01 T03740145  RH  026%=      5-min Rain = 0
KTA1 182256Z 19009KT 37/15 A2988 RMK A01 T03740147  RH  026%=      5-min Rain = 0
KTA1 182257Z 18014G19KT 38/15 A2988 RMK A01 T03760149  RH  026%=      5-min Rain = 0
KTA1 182258Z 16015KT 38/15 A2988 RMK A01 T03760152  RH  027%=      5-min Rain = 0
KTA1 182259Z 16013KT 38/15 A2988 RMK A01 T03760154  RH  027%=      5-min Rain = 0
KTA1 182300Z 15011KT 37/15 A2988 RMK A01 T03740153  RH  027%=      5-min Rain = 0
KTA1 182301Z 16012KT 37/15 A2988 RMK A01 T03730154  RH  027%=      5-min Rain = 0
KTA1 182302Z 16014KT 37/15 A2988 RMK A01 T03740152  RH  027%=      5-min Rain = 0
KTA1 182303Z 16015KT 37/15 A2988 RMK A01 T03740152  RH  027%=      5-min Rain = 0
KTA1 182304Z 16013G18KT 37/15 A2988 RMK A01 T03740151  RH  027%=      5-min Rain = 0
KTA1 182305Z 16013KT 37/15 A2988 RMK A01 T03740151  RH  027%=      5-min Rain = 0
KTA1 182306Z 17014KT 38/15 A2988 RMK A01 T03760150  RH  026%=      5-min Rain = 0
KTA1 182307Z 16014KT 38/15 A2988 RMK A01 T03770148  RH  026%=      5-min Rain = 0
KTA1 182308Z 17012KT 38/15 A2988 RMK A01 T03760149  RH  026%=      5-min Rain = 0
KTA1 182309Z 18015KT 38/15 A2988 RMK A01 T03750148  RH  026%=      5-min Rain = 0
KTA1 182310Z 17011KT 38/15 A2988 RMK A01 T03750147  RH  026%=      5-min Rain = 0
KTA1 182311Z 17013KT 38/15 A2987 RMK A01 T03750147  RH  026%=      5-min Rain = 0
KTA1 182312Z 17011KT 37/15 A2987 RMK A01 T03740146  RH  026%=      5-min Rain = 0
KTA1 182313Z 17009KT 37/15 A2987 RMK A01 T03730147  RH  026%=      5-min Rain = 0
KTA1 182314Z 18009KT 37/15 A2987 RMK A01 T03730147  RH  026%=      5-min Rain = 0
KTA1 182315Z 17011KT 37/15 A2987 RMK A01 T03740148  RH  026%=      5-min Rain = 0
KTA1 182316Z 17008KT 38/15 A2987 RMK A01 T03750149  RH  026%=      5-min Rain = 0
KTA1 182317Z 17008KT 37/15 A2987 RMK A01 T03740150  RH  026%=      5-min Rain = 0
KTA1 182318Z 17009KT 38/15 A2987 RMK A01 T03750150  RH  027%=      5-min Rain = 0
KTA1 182319Z 16010KT 38/15 A2987 RMK A01 T03770152  RH  027%=      5-min Rain = 0
KTA1 182320Z 16011KT 38/15 A2987 RMK A01 T03780152  RH  026%=      5-min Rain = 0
KTA1 182321Z 18012KT 38/15 A2987 RMK A01 T03780149  RH  026%=      5-min Rain = 0
KTA1 182322Z 18011KT 38/15 A2987 RMK A01 T03760149  RH  026%=      5-min Rain = 0
KTA1 182323Z 18008G15KT 38/15 A2987 RMK A01 T03760149  RH  026%=      5-min Rain = 0
KTA1 182324Z 17010KT 38/15 A2987 RMK A01 T03770151  RH  026%=      5-min Rain = 0
KTA1 182325Z 15009KT 38/15 A2987 RMK A01 T03780152  RH  026%=      5-min Rain = 0
KTA1 182326Z 18008G13KT 38/15 A2987 RMK A01 T03790153  RH  026%=      5-min Rain = 0
KTA1 182327Z 18017KT 38/15 A2987 RMK A01 T03780148  RH  026%=      5-min Rain = 0
KTA1 182328Z 18014KT 38/15 A2987 RMK A01 T03760146  RH  026%=      5-min Rain = 0
KTA1 182329Z 18011KT 38/15 A2987 RMK A01 T03750146  RH  026%=      5-min Rain = 0
KTA1 182330Z 19013KT 37/15 A2987 RMK A01 T03740146  RH  026%=      5-min Rain = 0
KTA1 182331Z 17013KT 37/15 A2987 RMK A01 T03740146  RH  026%=      5-min Rain = 0
KTA1 182332Z 18013G18KT 37/15 A2987 RMK A01 T03730145  RH  026%=      5-min Rain = 0
KTA1 182333Z 17014KT 37/15 A2987 RMK A01 T03730146  RH  026%=      5-min Rain = 0
KTA1 182334Z 17011KT 37/15 A2987 RMK A01 T03740145  RH  026%=      5-min Rain = 0
KTA1 182335Z 17014KT 37/15 A2987 RMK A01 T03740145  RH  026%=      5-min Rain = 0
KTA1 182336Z 17013KT 37/15 A2987 RMK A01 T03740146  RH  026%=      5-min Rain = 0
KTA1 182337Z 17014KT 37/15 A2987 RMK A01 T03730147  RH  026%=      5-min Rain = 0
KTA1 182338Z 17013KT 37/15 A2987 RMK A01 T03730148  RH  026%=      5-min Rain = 0
KTA1 182339Z 16012KT 37/15 A2987 RMK A01 T03730149  RH  027%=      5-min Rain = 0
KTA1 182340Z 17015KT 37/15 A2987 RMK A01 T03720148  RH  027%=      5-min Rain = 0
KTA1 182341Z 17014KT 37/15 A2987 RMK A01 T03720148  RH  026%=      5-min Rain = 0
KTA1 182342Z 17013KT 37/15 A2987 RMK A01 T03720146  RH  026%=      5-min Rain = 0
KTA1 182343Z 16016KT 37/15 A2987 RMK A01 T03710147  RH  026%=      5-min Rain = 0
KTA1 182344Z 16015KT 37/15 A2987 RMK A01 T03710147  RH  026%=      5-min Rain = 0
KTA1 182345Z 16011KT 37/15 A2987 RMK A01 T03710148  RH  027%=      5-min Rain = 0
KTA1 182346Z 16012G17KT 37/15 A2987 RMK A01 T03710147  RH  027%=      5-min Rain = 0
KTA1 182347Z 16015KT 37/15 A2987 RMK A01 T03710148  RH  027%=      5-min Rain = 0
KTA1 182348Z 15014KT 37/15 A2987 RMK A01 T03700147  RH  027%=      5-min Rain = 0
KTA1 182349Z 16014KT 37/15 A2987 RMK A01 T03690148  RH  027%=      5-min Rain = 0
KTA1 182350Z 18015KT 37/15 A2987 RMK A01 T03690147  RH  027%=      5-min Rain = 0
KTA1 182351Z 17015KT 37/15 A2987 RMK A01 T03690145  RH  026%=      5-min Rain = 0
KTA1 182352Z 17016KT 37/15 A2987 RMK A01 T03700145  RH  026%=      5-min Rain = 0
KTA1 182353Z 17015KT 37/14 A2987 RMK A01 T03700144  RH  026%=      5-min Rain = 0
KTA1 182354Z 18012G17KT 37/15 A2987 RMK A01 T03700145  RH  026%=      5-min Rain = 0
KTA1 182355Z 17012G17KT 37/15 A2987 RMK A01 T03710145  RH  026%=      5-min Rain = 0
KTA1 182356Z 17011KT 37/15 A2987 RMK A01 T03710146  RH  026%=      5-min Rain = 0
KTA1 182357Z 16010KT 37/15 A2987 RMK A01 T03730148  RH  026%=      5-min Rain = 0
KTA1 182358Z 16017KT 37/15 A2987 RMK A01 T03740147  RH  026%=      5-min Rain = 0
KTA1 182359Z 16012G18KT 37/15 A2987 RMK A01 T03730146  RH  026%=      5-min Rain = 0
KTA1 190000Z 15014KT 37/15 A2987 RMK A01 T03710146  RH  026%=      5-min Rain = 0
KTA1 190001Z 16012KT 37/15 A2987 RMK A01 T03700145  RH  026%=      5-min Rain = 0
KTA1 190002Z 16017KT 37/15 A2987 RMK A01 T03690146  RH  027%=      5-min Rain = 0
KTA1 190003Z 16016KT 37/15 A2987 RMK A01 T03690145  RH  027%=      5-min Rain = 0
KTA1 190004Z 17014G19KT 37/15 A2987 RMK A01 T03680145  RH  027%=      5-min Rain = 0
KTA1 190005Z 17012KT 37/15 A2987 RMK A01 T03670145  RH  027%=      5-min Rain = 0
KTA1 190006Z 17011KT 37/15 A2987 RMK A01 T03680146  RH  027%=      5-min Rain = 0
KTA1 190007Z 18013KT 37/15 A2987 RMK A01 T03680146  RH  027%=      5-min Rain = 0
KTA1 190008Z 18014KT 37/15 A2987 RMK A01 T03690145  RH  027%=      5-min Rain = 0
KTA1 190009Z 18013KT 37/15 A2987 RMK A01 T03690145  RH  026%=      5-min Rain = 0
KTA1 190010Z 18010KT 37/15 A2987 RMK A01 T03680146  RH  027%=      5-min Rain = 0
KTA1 190011Z 17010KT 37/15 A2987 RMK A01 T03690147  RH  027%=      5-min Rain = 0
KTA1 190012Z 17014KT 37/15 A2987 RMK A01 T03700147  RH  027%=      5-min Rain = 0
KTA1 190013Z 16017KT 37/15 A2987 RMK A01 T03700146  RH  027%=      5-min Rain = 0
KTA1 190014Z 17016KT 37/15 A2987 RMK A01 T03680146  RH  027%=      5-min Rain = 0
KTA1 190015Z 16015G20KT 37/15 A2987 RMK A01 T03670145  RH  027%=      5-min Rain = 0
KTA1 190016Z 17015KT 37/15 A2987 RMK A01 T03660146  RH  027%=      5-min Rain = 0
KTA1 190017Z 17013KT 37/15 A2987 RMK A01 T03660146  RH  027%=      5-min Rain = 0
KTA1 190018Z 17014G19KT 37/15 A2987 RMK A01 T03670146  RH  027%=      5-min Rain = 0
KTA1 190019Z 17013KT 37/15 A2987 RMK A01 T03670146  RH  027%=      5-min Rain = 0
KTA1 190020Z 17012KT 37/15 A2987 RMK A01 T03670147  RH  027%=      5-min Rain = 0
KTA1 190021Z 17014KT 37/15 A2987 RMK A01 T03670146  RH  027%=      5-min Rain = 0
KTA1 190022Z 17014KT 37/15 A2987 RMK A01 T03670145  RH  027%=      5-min Rain = 0
KTA1 190023Z 16013KT 37/15 A2987 RMK A01 T03660145  RH  027%=      5-min Rain = 0
KTA1 190024Z 17015KT 37/15 A2987 RMK A01 T03650146  RH  027%=      5-min Rain = 0
KTA1 190025Z 16011KT 36/15 A2987 RMK A01 T03640146  RH  027%=      5-min Rain = 0
KTA1 190026Z 17013KT 37/15 A2987 RMK A01 T03650148  RH  028%=      5-min Rain = 0
KTA1 190027Z 17016KT 37/15 A2987 RMK A01 T03660147  RH  027%=      5-min Rain = 0
KTA1 190028Z 17014KT 37/15 A2988 RMK A01 T03660148  RH  027%=      5-min Rain = 0
KTA1 190029Z 17015KT 37/15 A2987 RMK A01 T03650149  RH  028%=      5-min Rain = 0
KTA1 190030Z 17015G20KT 36/15 A2988 RMK A01 T03640149  RH  028%=      5-min Rain = 0
KTA1 190031Z 17015KT 36/15 A2988 RMK A01 T03640150  RH  028%=      5-min Rain = 0
KTA1 190032Z 16017KT 36/15 A2987 RMK A01 T03630151  RH  028%=      5-min Rain = 0
KTA1 190033Z 16017KT 36/15 A2988 RMK A01 T03630152  RH  029%=      5-min Rain = 0
KTA1 190034Z 17014KT 36/15 A2988 RMK A01 T03620152  RH  029%=      5-min Rain = 0
KTA1 190035Z 16014KT 36/15 A2988 RMK A01 T03620152  RH  029%=      5-min Rain = 0
KTA1 190036Z 17011KT 36/15 A2988 RMK A01 T03620153  RH  029%=      5-min Rain = 0
KTA1 190037Z 17013KT 36/15 A2988 RMK A01 T03620153  RH  029%=      5-min Rain = 0
KTA1 190038Z 17015KT 36/15 A2988 RMK A01 T03620153  RH  029%=      5-min Rain = 0
KTA1 190039Z 18014KT 36/15 A2988 RMK A01 T03620151  RH  029%=      5-min Rain = 0
KTA1 190040Z 17014KT 36/15 A2988 RMK A01 T03620151  RH  029%=      5-min Rain = 0
KTA1 190041Z 16016KT 36/15 A2988 RMK A01 T03610152  RH  029%=      5-min Rain = 0
KTA1 190042Z 16017KT 36/15 A2988 RMK A01 T03610153  RH  029%=      5-min Rain = 0
KTA1 190043Z 16016G22KT 36/15 A2988 RMK A01 T03600153  RH  029%=      5-min Rain = 0
KTA1 190044Z 17016G22KT 36/15 A2988 RMK A01 T03590153  RH  029%=      5-min Rain = 0
KTA1 190045Z 17015G20KT 36/15 A2988 RMK A01 T03590153  RH  029%=      5-min Rain = 0
KTA1 190046Z 17015KT 36/15 A2988 RMK A01 T03590153  RH  030%=      5-min Rain = 0
KTA1 190047Z 18011KT 36/15 A2988 RMK A01 T03580154  RH  030%=      5-min Rain = 0
KTA1 190048Z 17015KT 36/16 A2988 RMK A01 T03590155  RH  030%=      5-min Rain = 0
KTA1 190049Z 17013KT 36/16 A2988 RMK A01 T03590155  RH  030%=      5-min Rain = 0
KTA1 190050Z 17015G21KT 36/16 A2988 RMK A01 T03590155  RH  030%=      5-min Rain = 0
KTA1 190051Z 17014G20KT 36/15 A2988 RMK A01 T03580154  RH  030%=      5-min Rain = 0
KTA1 190052Z 17017KT 36/16 A2988 RMK A01 T03580155  RH  030%=      5-min Rain = 0
KTA1 190053Z 17019KT 36/15 A2988 RMK A01 T03570154  RH  030%=      5-min Rain = 0
KTA1 190054Z 17017KT 36/16 A2988 RMK A01 T03560155  RH  030%=      5-min Rain = 0
KTA1 190055Z 17014G21KT 36/16 A2988 RMK A01 T03560155  RH  030%=      5-min Rain = 0
KTA1 190056Z 17014G19KT 36/16 A2988 RMK A01 T03550155  RH  030%=      5-min Rain = 0
KTA1 190057Z 16011KT 36/16 A2988 RMK A01 T03550156  RH  031%=      5-min Rain = 0
KTA1 190058Z 16015G20KT 36/16 A2988 RMK A01 T03550156  RH  031%=      5-min Rain = 0
KTA1 190059Z 16016KT 35/16 A2988 RMK A01 T03540156  RH  031%=      5-min Rain = 0
KTA1 190100Z 16013G19KT 35/16 A2988 RMK A01 T03530156  RH  031%=      5-min Rain = 0
KTA1 190101Z 16016G21KT 35/16 A2988 RMK A01 T03530156  RH  031%=      5-min Rain = 0
KTA1 190102Z 16017G22KT 35/16 A2988 RMK A01 T03520155  RH  031%=      5-min Rain = 0
KTA1 190103Z 16017G22KT 35/16 A2988 RMK A01 T03520156  RH  031%=      5-min Rain = 0
KTA1 190104Z 16016KT 35/16 A2988 RMK A01 T03520157  RH  031%=      5-min Rain = 0
KTA1 190105Z 16016G21KT 35/16 A2988 RMK A01 T03510157  RH  032%=      5-min Rain = 0
KTA1 190106Z 16014G19KT 35/16 A2988 RMK A01 T03510158  RH  032%=      5-min Rain = 0
KTA1 190107Z 16013G18KT 35/16 A2988 RMK A01 T03510158  RH  032%=      5-min Rain = 0
KTA1 190108Z 16014KT 35/16 A2988 RMK A01 T03510158  RH  032%=      5-min Rain = 0
KTA1 190109Z 16014KT 35/16 A2988 RMK A01 T03500158  RH  032%=      5-min Rain = 0
KTA1 190110Z 17015KT 35/16 A2988 RMK A01 T03500158  RH  032%=      5-min Rain = 0
KTA1 190111Z 17015KT 35/16 A2988 RMK A01 T03500158  RH  032%=      5-min Rain = 0
KTA1 190112Z 16014KT 35/16 A2988 RMK A01 T03500158  RH  032%=      5-min Rain = 0
KTA1 190113Z 16011KT 35/16 A2988 RMK A01 T03490159  RH  032%=      5-min Rain = 0
KTA1 190114Z 16015KT 35/16 A2988 RMK A01 T03490160  RH  033%=      5-min Rain = 0
KTA1 190115Z 16014KT 35/16 A2988 RMK A01 T03480161  RH  033%=      5-min Rain = 0
KTA1 190116Z 16014KT 35/16 A2988 RMK A01 T03470161  RH  033%=      5-min Rain = 0
KTA1 190117Z 16013G18KT 35/16 A2988 RMK A01 T03470162  RH  033%=      5-min Rain = 0
KTA1 190118Z 17014KT 35/16 A2988 RMK A01 T03460161  RH  033%=      5-min Rain = 0
KTA1 190119Z 17012KT 35/16 A2988 RMK A01 T03460161  RH  033%=      5-min Rain = 0
KTA1 190120Z 17012KT 35/16 A2988 RMK A01 T03460161  RH  033%=      5-min Rain = 0
KTA1 190121Z 17013KT 35/16 A2988 RMK A01 T03460161  RH  033%=      5-min Rain = 0
KTA1 190122Z 17016KT 35/16 A2988 RMK A01 T03460161  RH  033%=      5-min Rain = 0
KTA1 190123Z 16014G19KT 35/16 A2988 RMK A01 T03470161  RH  033%=      5-min Rain = 0
KTA1 190124Z 17015KT 35/16 A2988 RMK A01 T03460161  RH  033%=      5-min Rain = 0
KTA1 190125Z 17014KT 35/16 A2988 RMK A01 T03460161  RH  033%=      5-min Rain = 0
KTA1 190126Z 16013KT 35/16 A2988 RMK A01 T03450161  RH  033%=      5-min Rain = 0
KTA1 190127Z 16012KT 35/16 A2988 RMK A01 T03450161  RH  033%=      5-min Rain = 0
KTA1 190128Z 17012KT 34/16 A2988 RMK A01 T03440161  RH  034%=      5-min Rain = 0
KTA1 190129Z 17014KT 34/16 A2988 RMK A01 T03440162  RH  034%=      5-min Rain = 0
KTA1 190130Z 17015G20KT 34/16 A2988 RMK A01 T03440161  RH  034%=      5-min Rain = 0
KTA1 190131Z 17014KT 34/16 A2988 RMK A01 T03430161  RH  034%=      5-min Rain = 0
KTA1 190132Z 16011G17KT 34/16 A2988 RMK A01 T03430161  RH  034%=      5-min Rain = 0
KTA1 190133Z 17014KT 34/16 A2988 RMK A01 T03430161  RH  034%=      5-min Rain = 0
KTA1 190134Z 17014KT 34/16 A2988 RMK A01 T03430161  RH  034%=      5-min Rain = 0
KTA1 190135Z 16012KT 34/16 A2988 RMK A01 T03420161  RH  034%=      5-min Rain = 0
KTA1 190136Z 16012G18KT 34/16 A2988 RMK A01 T03420161  RH  034%=      5-min Rain = 0
KTA1 190137Z 16011KT 34/16 A2988 RMK A01 T03410162  RH  034%=      5-min Rain = 0
KTA1 190138Z 16012KT 34/16 A2988 RMK A01 T03400162  RH  034%=      5-min Rain = 0
KTA1 190139Z 16012KT 34/16 A2988 RMK A01 T03400162  RH  035%=      5-min Rain = 0
KTA1 190140Z 17013KT 34/16 A2988 RMK A01 T03390162  RH  035%=      5-min Rain = 0
KTA1 190141Z 16014KT 34/16 A2988 RMK A01 T03390162  RH  035%=      5-min Rain = 0
KTA1 190142Z 16015KT 34/16 A2988 RMK A01 T03390162  RH  035%=      5-min Rain = 0
KTA1 190143Z 17016KT 34/16 A2988 RMK A01 T03390162  RH  035%=      5-min Rain = 0
KTA1 190144Z 16011KT 34/16 A2989 RMK A01 T03390162  RH  035%=      5-min Rain = 0
KTA1 190145Z 16012KT 34/16 A2989 RMK A01 T03390163  RH  035%=      5-min Rain = 0
KTA1 190146Z 16011KT 34/16 A2989 RMK A01 T03380163  RH  035%=      5-min Rain = 0
KTA1 190147Z 16012KT 34/16 A2989 RMK A01 T03380163  RH  035%=      5-min Rain = 0
KTA1 190148Z 16013KT 34/16 A2989 RMK A01 T03370163  RH  036%=      5-min Rain = 0
KTA1 190149Z 16012KT 34/16 A2989 RMK A01 T03360164  RH  036%=      5-min Rain = 0
KTA1 190150Z 16013KT 34/16 A2989 RMK A01 T03360164  RH  036%=      5-min Rain = 0
KTA1 190151Z 17011KT 34/16 A2989 RMK A01 T03360164  RH  036%=      5-min Rain = 0
KTA1 190152Z 16010KT 34/16 A2989 RMK A01 T03350164  RH  036%=      5-min Rain = 0
KTA1 190153Z 16011KT 34/17 A2989 RMK A01 T03350165  RH  036%=      5-min Rain = 0
KTA1 190154Z 16008KT 33/16 A2989 RMK A01 T03340164  RH  036%=      5-min Rain = 0
KTA1 190155Z 16011KT 33/16 A2989 RMK A01 T03340164  RH  036%=      5-min Rain = 0
KTA1 190156Z 17012KT 33/16 A2989 RMK A01 T03330164  RH  036%=      5-min Rain = 0
KTA1 190157Z 16010G16KT 33/16 A2989 RMK A01 T03340164  RH  036%=      5-min Rain = 0
KTA1 190158Z 17013KT 33/16 A2989 RMK A01 T03340164  RH  036%=      5-min Rain = 0
KTA1 190159Z 16012KT 33/16 A2989 RMK A01 T03340164  RH  036%=      5-min Rain = 0
KTA1 190200Z 16011G16KT 33/17 A2989 RMK A01 T03340165  RH  036%=      5-min Rain = 0
KTA1 190201Z 16014KT 33/17 A2989 RMK A01 T03330165  RH  037%=      5-min Rain = 0
KTA1 190202Z 16013KT 33/17 A2989 RMK A01 T03330165  RH  037%=      5-min Rain = 0
KTA1 190203Z 16013KT 33/17 A2989 RMK A01 T03330165  RH  037%=      5-min Rain = 0
KTA1 190204Z 16013KT 33/17 A2989 RMK A01 T03330165  RH  037%=      5-min Rain = 0
KTA1 190205Z 16013G18KT 33/17 A2989 RMK A01 T03330165  RH  037%=      5-min Rain = 0
KTA1 190206Z 16012KT 33/17 A2989 RMK A01 T03330166  RH  037%=      5-min Rain = 0
KTA1 190207Z 16014G19KT 33/17 A2989 RMK A01 T03320166  RH  037%=      5-min Rain = 0
KTA1 190208Z 16013KT 33/17 A2989 RMK A01 T03320166  RH  037%=      5-min Rain = 0
KTA1 190209Z 16011KT 33/17 A2989 RMK A01 T03320166  RH  037%=      5-min Rain = 0
KTA1 190210Z 16012KT 33/17 A2989 RMK A01 T03310166  RH  037%=      5-min Rain = 0
KTA1 190211Z 16013KT 33/17 A2989 RMK A01 T03310166  RH  037%=      5-min Rain = 0
KTA1 190212Z 16012KT 33/17 A2989 RMK A01 T03310167  RH  037%=      5-min Rain = 0
KTA1 190213Z 16012KT 33/17 A2989 RMK A01 T03310167  RH  037%=      5-min Rain = 0
KTA1 190214Z 16013KT 33/17 A2989 RMK A01 T03310167  RH  037%=      5-min Rain = 0
KTA1 190215Z 16009KT 33/17 A2989 RMK A01 T03310167  RH  038%=      5-min Rain = 0
KTA1 190216Z 16013KT 33/17 A2989 RMK A01 T03300167  RH  038%=      5-min Rain = 0
KTA1 190217Z 16014KT 33/17 A2989 RMK A01 T03300167  RH  038%=      5-min Rain = 0
KTA1 190218Z 16012KT 33/17 A2989 RMK A01 T03300167  RH  038%=      5-min Rain = 0
KTA1 190219Z 16011KT 33/17 A2989 RMK A01 T03290167  RH  038%=      5-min Rain = 0
KTA1 190220Z 16012KT 33/17 A2989 RMK A01 T03290167  RH  038%=      5-min Rain = 0
KTA1 190221Z 16012KT 33/17 A2989 RMK A01 T03290167  RH  038%=      5-min Rain = 0
KTA1 190222Z 16012KT 33/17 A2989 RMK A01 T03280166  RH  038%=      5-min Rain = 0
KTA1 190223Z 16011KT 33/17 A2989 RMK A01 T03280167  RH  038%=      5-min Rain = 0
KTA1 190224Z 16012KT 33/17 A2989 RMK A01 T03270166  RH  038%=      5-min Rain = 0
KTA1 190225Z 16013KT 33/17 A2989 RMK A01 T03270167  RH  038%=      5-min Rain = 0
KTA1 190226Z 16012KT 33/17 A299 RMK A01 T03270167  RH  038%=      5-min Rain = 0
KTA1 190227Z 16014KT 33/17 A299 RMK A01 T03270167  RH  038%=      5-min Rain = 0
KTA1 190228Z 16011KT 33/17 A299 RMK A01 T03260167  RH  039%=      5-min Rain = 0
KTA1 190229Z 16012KT 33/17 A299 RMK A01 T03260167  RH  039%=      5-min Rain = 0
KTA1 190230Z 16009KT 33/17 A299 RMK A01 T03260167  RH  039%=      5-min Rain = 0
KTA1 190231Z 16012KT 33/17 A299 RMK A01 T03260167  RH  039%=      5-min Rain = 0
KTA1 190232Z 16012KT 33/17 A299 RMK A01 T03250167  RH  039%=      5-min Rain = 0
KTA1 190233Z 16011KT 33/17 A299 RMK A01 T03250167  RH  039%=      5-min Rain = 0
KTA1 190234Z 16013KT 33/17 A299 RMK A01 T03250167  RH  039%=      5-min Rain = 0
KTA1 190235Z 16011KT 33/17 A299 RMK A01 T03250167  RH  039%=      5-min Rain = 0
KTA1 190236Z 16013KT 33/17 A299 RMK A01 T03250167  RH  039%=      5-min Rain = 0
KTA1 190237Z 16012KT 33/17 A299 RMK A01 T03250167  RH  039%=      5-min Rain = 0
KTA1 190238Z 16012KT 32/17 A299 RMK A01 T03240167  RH  039%=      5-min Rain = 0
KTA1 190239Z 16010G15KT 32/17 A299 RMK A01 T03240166  RH  039%=      5-min Rain = 0
KTA1 190240Z 16012KT 32/17 A299 RMK A01 T03240166  RH  039%=      5-min Rain = 0
KTA1 190241Z 16013KT 32/17 A299 RMK A01 T03240166  RH  039%=      5-min Rain = 0
KTA1 190242Z 16011KT 32/17 A299 RMK A01 T03240166  RH  039%=      5-min Rain = 0
KTA1 190243Z 16013KT 32/17 A299 RMK A01 T03240166  RH  039%=      5-min Rain = 0
KTA1 190244Z 16011KT 32/17 A299 RMK A01 T03230166  RH  039%=      5-min Rain = 0
KTA1 190245Z 16012KT 32/17 A299 RMK A01 T03230166  RH  039%=      5-min Rain = 0
KTA1 190246Z 16010KT 32/17 A299 RMK A01 T03230166  RH  039%=      5-min Rain = 0
KTA1 190247Z 16011G16KT 32/17 A299 RMK A01 T03230165  RH  039%=      5-min Rain = 0
KTA1 190248Z 16011G16KT 32/17 A299 RMK A01 T03230165  RH  039%=      5-min Rain = 0
KTA1 190249Z 16011KT 32/17 A299 RMK A01 T03220165  RH  039%=      5-min Rain = 0
KTA1 190250Z 16012KT 32/17 A299 RMK A01 T03220165  RH  039%=      5-min Rain = 0
KTA1 190251Z 16012KT 32/17 A299 RMK A01 T03220166  RH  039%=      5-min Rain = 0
KTA1 190252Z 16009KT 32/17 A299 RMK A01 T03220166  RH  039%=      5-min Rain = 0
KTA1 190253Z 16008G13KT 32/17 A299 RMK A01 T03210165  RH  039%=      5-min Rain = 0
KTA1 190254Z 16011KT 32/17 A299 RMK A01 T03200165  RH  039%=      5-min Rain = 0
KTA1 190255Z 16012KT 32/17 A299 RMK A01 T03200165  RH  040%=      5-min Rain = 0
KTA1 190256Z 16011G16KT 32/17 A299 RMK A01 T03200165  RH  040%=      5-min Rain = 0
KTA1 190257Z 16010KT 32/17 A299 RMK A01 T03200165  RH  039%=      5-min Rain = 0
KTA1 190258Z 16011KT 32/17 A299 RMK A01 T03200165  RH  040%=      5-min Rain = 0
KTA1 190259Z 16010KT 32/17 A299 RMK A01 T03200165  RH  040%=      5-min Rain = 0
KTA1 190300Z 16012KT 32/17 A2991 RMK A01 T03190165  RH  040%=      5-min Rain = 0
KTA1 190301Z 16011KT 32/17 A2991 RMK A01 T03200165  RH  040%=      5-min Rain = 0
KTA1 190302Z 16011KT 32/17 A2991 RMK A01 T03190165  RH  040%=      5-min Rain = 0
KTA1 190303Z 16013KT 32/17 A2991 RMK A01 T03190165  RH  040%=      5-min Rain = 0
KTA1 190304Z 16012G17KT 32/17 A2991 RMK A01 T03190165  RH  040%=      5-min Rain = 0
KTA1 190305Z 16012KT 32/17 A2991 RMK A01 T03190165  RH  040%=      5-min Rain = 0
KTA1 190306Z 16013KT 32/17 A2991 RMK A01 T03190165  RH  040%=      5-min Rain = 0
KTA1 190307Z 16011KT 32/17 A2991 RMK A01 T03190165  RH  040%=      5-min Rain = 0
KTA1 190308Z 17012KT 32/17 A2991 RMK A01 T03190165  RH  040%=      5-min Rain = 0
KTA1 190309Z 16010KT 32/17 A2991 RMK A01 T03190165  RH  040%=      5-min Rain = 0
KTA1 190310Z 16012KT 32/17 A2991 RMK A01 T03190166  RH  040%=      5-min Rain = 0
KTA1 190311Z 16012KT 32/17 A2991 RMK A01 T03180166  RH  040%=      5-min Rain = 0
KTA1 190312Z 16013KT 32/17 A2991 RMK A01 T03180166  RH  040%=      5-min Rain = 0
KTA1 190313Z 16012KT 32/17 A2991 RMK A01 T03180166  RH  040%=      5-min Rain = 0
KTA1 190314Z 16011KT 32/17 A2991 RMK A01 T03180166  RH  040%=      5-min Rain = 0
KTA1 190315Z 16012KT 32/17 A2991 RMK A01 T03180166  RH  040%=      5-min Rain = 0
KTA1 190316Z 16012KT 32/17 A2991 RMK A01 T03180166  RH  040%=      5-min Rain = 0
KTA1 190317Z 16011KT 32/17 A2991 RMK A01 T03170166  RH  040%=      5-min Rain = 0
KTA1 190318Z 16010KT 32/17 A2991 RMK A01 T03170166  RH  040%=      5-min Rain = 0
KTA1 190319Z 16010KT 32/17 A2992 RMK A01 T03160166  RH  041%=      5-min Rain = 0
KTA1 190320Z 16009KT 32/17 A2992 RMK A01 T03160166  RH  041%=      5-min Rain = 0
KTA1 190321Z 16012KT 32/17 A2992 RMK A01 T03150166  RH  041%=      5-min Rain = 0
KTA1 190322Z 16010KT 32/17 A2992 RMK A01 T03150167  RH  041%=      5-min Rain = 0
KTA1 190323Z 16012KT 31/17 A2992 RMK A01 T03140166  RH  041%=      5-min Rain = 0
KTA1 190324Z 16013KT 31/17 A2992 RMK A01 T03140166  RH  041%=      5-min Rain = 0
KTA1 190325Z 16012KT 31/17 A2992 RMK A01 T03140166  RH  041%=      5-min Rain = 0
KTA1 190326Z 16011KT 31/17 A2992 RMK A01 T03130166  RH  041%=      5-min Rain = 0
KTA1 190327Z 16010KT 31/17 A2992 RMK A01 T03130167  RH  041%=      5-min Rain = 0
KTA1 190328Z 16013KT 31/17 A2992 RMK A01 T03130167  RH  041%=      5-min Rain = 0
KTA1 190329Z 16011KT 31/17 A2992 RMK A01 T03130167  RH  042%=      5-min Rain = 0
KTA1 190330Z 16012KT 31/17 A2992 RMK A01 T03130167  RH  042%=      5-min Rain = 0
KTA1 190331Z 16014KT 31/17 A2992 RMK A01 T03130167  RH  042%=      5-min Rain = 0
KTA1 190332Z 16011KT 31/17 A2992 RMK A01 T03130167  RH  042%=      5-min Rain = 0
KTA1 190333Z 16011KT 31/17 A2992 RMK A01 T03120167  RH  042%=      5-min Rain = 0
KTA1 190334Z 16013KT 31/17 A2992 RMK A01 T03120167  RH  042%=      5-min Rain = 0
KTA1 190335Z 16012KT 31/17 A2992 RMK A01 T03120167  RH  042%=      5-min Rain = 0
KTA1 190336Z 16013KT 31/17 A2992 RMK A01 T03120168  RH  042%=      5-min Rain = 0
KTA1 190337Z 16013KT 31/17 A2992 RMK A01 T03120167  RH  042%=      5-min Rain = 0
KTA1 190338Z 16013KT 31/17 A2992 RMK A01 T03120167  RH  042%=      5-min Rain = 0
KTA1 190339Z 15011KT 31/17 A2992 RMK A01 T03110167  RH  042%=      5-min Rain = 0
KTA1 190340Z 16012KT 31/17 A2992 RMK A01 T03110168  RH  042%=      5-min Rain = 0
KTA1 190341Z 16013KT 31/17 A2993 RMK A01 T03110167  RH  042%=      5-min Rain = 0
KTA1 190342Z 16013KT 31/17 A2993 RMK A01 T03110167  RH  042%=      5-min Rain = 0
KTA1 190343Z 16012KT 31/17 A2993 RMK A01 T03110168  RH  042%=      5-min Rain = 0
KTA1 190344Z 16011KT 31/17 A2993 RMK A01 T03110167  RH  042%=      5-min Rain = 0
KTA1 190345Z 16011G16KT 31/17 A2993 RMK A01 T03110167  RH  042%=      5-min Rain = 0
KTA1 190346Z 16011KT 31/17 A2993 RMK A01 T03100168  RH  042%=      5-min Rain = 0
KTA1 190347Z 16012KT 31/17 A2993 RMK A01 T03100167  RH  042%=      5-min Rain = 0
KTA1 190348Z 16012KT 31/17 A2993 RMK A01 T03090167  RH  042%=      5-min Rain = 0
KTA1 190349Z 16012KT 31/17 A2993 RMK A01 T03090167  RH  042%=      5-min Rain = 0
KTA1 190350Z 16010KT 31/17 A2993 RMK A01 T03090167  RH  042%=      5-min Rain = 0
KTA1 190351Z 16014KT 31/17 A2993 RMK A01 T03090167  RH  042%=      5-min Rain = 0
KTA1 190352Z 16013KT 31/17 A2993 RMK A01 T03090166  RH  042%=      5-min Rain = 0
KTA1 190353Z 16012KT 31/17 A2993 RMK A01 T03090166  RH  042%=      5-min Rain = 0
KTA1 190354Z 16011KT 31/17 A2993 RMK A01 T03090166  RH  042%=      5-min Rain = 0
KTA1 190355Z 16013G19KT 31/17 A2993 RMK A01 T03090166  RH  042%=      5-min Rain = 0
KTA1 190356Z 16013G19KT 31/17 A2993 RMK A01 T03090166  RH  042%=      5-min Rain = 0
KTA1 190357Z 16017KT 31/17 A2993 RMK A01 T03090166  RH  042%=      5-min Rain = 0
KTA1 190358Z 16016KT 31/17 A2993 RMK A01 T03100165  RH  042%=      5-min Rain = 0
KTA1 190359Z 16013KT 31/17 A2993 RMK A01 T03100165  RH  042%=      5-min Rain = 0
KTA1 190400Z 16016KT 31/17 A2993 RMK A01 T03100166  RH  042%=      5-min Rain = 0
KTA1 190401Z 16016KT 31/17 A2993 RMK A01 T03100165  RH  042%=      5-min Rain = 0
KTA1 190402Z 16016G21KT 31/17 A2993 RMK A01 T03100165  RH  042%=      5-min Rain = 0
KTA1 190403Z 17016KT 31/17 A2993 RMK A01 T03100165  RH  042%=      5-min Rain = 0
KTA1 190404Z 16015KT 31/17 A2993 RMK A01 T03100165  RH  042%=      5-min Rain = 0
KTA1 190405Z 16016G21KT 31/17 A2993 RMK A01 T03100165  RH  042%=      5-min Rain = 0
KTA1 190406Z 16017KT 31/17 A2993 RMK A01 T03100165  RH  042%=      5-min Rain = 0
KTA1 190407Z 16015KT 31/17 A2993 RMK A01 T03100165  RH  042%=      5-min Rain = 0
KTA1 190408Z 16016G21KT 31/17 A2993 RMK A01 T03100165  RH  042%=      5-min Rain = 0
KTA1 190409Z 16017KT 31/17 A2994 RMK A01 T03100165  RH  042%=      5-min Rain = 0
KTA1 190410Z 16017KT 31/17 A2994 RMK A01 T03100165  RH  042%=      5-min Rain = 0
KTA1 190411Z 16015KT 31/17 A2994 RMK A01 T03090165  RH  042%=      5-min Rain = 0
KTA1 190412Z 16014KT 31/17 A2994 RMK A01 T03090165  RH  042%=      5-min Rain = 0
KTA1 190413Z 16016KT 31/17 A2994 RMK A01 T03080165  RH  042%=      5-min Rain = 0
KTA1 190414Z 17015KT 31/17 A2994 RMK A01 T03080165  RH  042%=      5-min Rain = 0
KTA1 190415Z 16014KT 31/17 A2994 RMK A01 T03080165  RH  042%=      5-min Rain = 0
KTA1 190416Z 16013KT 31/17 A2994 RMK A01 T03080165  RH  042%=      5-min Rain = 0
KTA1 190417Z 16014G21KT 31/17 A2994 RMK A01 T03070165  RH  042%=      5-min Rain = 0
KTA1 190418Z 16015KT 31/17 A2994 RMK A01 T03070165  RH  042%=      5-min Rain = 0
KTA1 190419Z 16016KT 31/17 A2994 RMK A01 T03070165  RH  042%=      5-min Rain = 0
KTA1 190420Z 16015KT 31/16 A2994 RMK A01 T03060164  RH  042%=      5-min Rain = 0
KTA1 190421Z 16014KT 31/16 A2994 RMK A01 T03060164  RH  042%=      5-min Rain = 0
KTA1 190422Z 16015G21KT 31/16 A2994 RMK A01 T03060164  RH  042%=      5-min Rain = 0
KTA1 190423Z 17013G19KT 31/17 A2994 RMK A01 T03060165  RH  042%=      5-min Rain = 0
KTA1 190424Z 16013KT 31/17 A2994 RMK A01 T03060165  RH  043%=      5-min Rain = 0
KTA1 190425Z 16012KT 31/16 A2994 RMK A01 T03050164  RH  043%=      5-min Rain = 0
KTA1 190426Z 17014G19KT 31/16 A2994 RMK A01 T03050164  RH  043%=      5-min Rain = 0
KTA1 190427Z 16015KT 31/16 A2994 RMK A01 T03050164  RH  043%=      5-min Rain = 0
KTA1 190428Z 16014KT 31/16 A2994 RMK A01 T03050164  RH  043%=      5-min Rain = 0
KTA1 190429Z 16015KT 31/16 A2995 RMK A01 T03050164  RH  043%=      5-min Rain = 0
KTA1 190430Z 16014KT 31/16 A2995 RMK A01 T03050164  RH  043%=      5-min Rain = 0
KTA1 190431Z 16015KT 31/16 A2995 RMK A01 T03050164  RH  043%=      5-min Rain = 0
KTA1 190432Z 16015KT 31/16 A2995 RMK A01 T03050164  RH  043%=      5-min Rain = 0
KTA1 190433Z 17015KT 30/16 A2995 RMK A01 T03040164  RH  043%=      5-min Rain = 0
KTA1 190434Z 16016G21KT 30/16 A2995 RMK A01 T03040164  RH  043%=      5-min Rain = 0
KTA1 190435Z 16014KT 31/16 A2995 RMK A01 T03050164  RH  043%=      5-min Rain = 0
KTA1 190436Z 17015KT 30/16 A2995 RMK A01 T03040164  RH  043%=      5-min Rain = 0
KTA1 190437Z 17014KT 30/16 A2995 RMK A01 T03040164  RH  043%=      5-min Rain = 0
KTA1 190438Z 17017KT 30/16 A2995 RMK A01 T03040164  RH  043%=      5-min Rain = 0
KTA1 190439Z 16013KT 30/16 A2995 RMK A01 T03040164  RH  043%=      5-min Rain = 0
KTA1 190440Z 16012G17KT 30/16 A2995 RMK A01 T03040164  RH  043%=      5-min Rain = 0
KTA1 190441Z 17012KT 30/16 A2995 RMK A01 T03030164  RH  043%=      5-min Rain = 0
KTA1 190442Z 16013KT 30/16 A2995 RMK A01 T03030163  RH  043%=      5-min Rain = 0
KTA1 190443Z 16015G20KT 30/16 A2995 RMK A01 T03020163  RH  043%=      5-min Rain = 0
KTA1 190444Z 16016KT 30/16 A2995 RMK A01 T03020163  RH  043%=      5-min Rain = 0
KTA1 190445Z 16016KT 30/16 A2995 RMK A01 T03020163  RH  043%=      5-min Rain = 0
KTA1 190446Z 16016KT 30/16 A2995 RMK A01 T03030163  RH  043%=      5-min Rain = 0
KTA1 190447Z 17015KT 30/16 A2995 RMK A01 T03020163  RH  043%=      5-min Rain = 0
KTA1 190448Z 17014G19KT 30/16 A2995 RMK A01 T03020162  RH  043%=      5-min Rain = 0
KTA1 190449Z 16014KT 30/16 A2995 RMK A01 T03020162  RH  043%=      5-min Rain = 0
KTA1 190450Z 16014KT 30/16 A2995 RMK A01 T03030162  RH  043%=      5-min Rain = 0
KTA1 190451Z 16015KT 30/16 A2995 RMK A01 T03020162  RH  043%=      5-min Rain = 0
KTA1 190452Z 16017KT 30/16 A2995 RMK A01 T03020162  RH  043%=      5-min Rain = 0
KTA1 190453Z 16018KT 30/16 A2995 RMK A01 T03020162  RH  043%=      5-min Rain = 0
KTA1 190454Z 16014KT 30/16 A2995 RMK A01 T03020161  RH  043%=      5-min Rain = 0
KTA1 190455Z 16016KT 30/16 A2995 RMK A01 T03020162  RH  043%=      5-min Rain = 0
KTA1 190456Z 17018KT 30/16 A2995 RMK A01 T03020161  RH  043%=      5-min Rain = 0
KTA1 190457Z 17015G20KT 30/16 A2995 RMK A01 T03020161  RH  043%=      5-min Rain = 0
KTA1 190458Z 16013KT 30/16 A2995 RMK A01 T03020161  RH  043%=      5-min Rain = 0
KTA1 190459Z 16017KT 30/16 A2995 RMK A01 T03010161  RH  043%=      5-min Rain = 0

Page generated in 0.0708 seconds.